<?xml version="1.0" encoding="UTF-8" standalone="no" ?>
<gpx xmlns="http://www.topografix.com/GPX/1/1" xmlns:xsi="http://www.w3.org/2001/XMLSchema-instance" xsi:schemaLocation="http://www.topografix.com/GPX/1/1 http://www.topografix.com/GPX/1/1/gpx.xsd" version="1.1" creator="VisuGPX - https://www.visugpx.com">
  <metadata>
    <name>Candelle 8 août </name>
    <desc><![CDATA[Un aller et retour non programmé mais de pure merveille.]]></desc>
  </metadata>
  <trk>
    <name><![CDATA[Candelle 8 aout 2012]]></name>
    <trkseg>
      <trkpt lat="43.23019" lon="5.43705">
        <ele>145</ele>
        <time>2012-08-08T05:27:32Z</time>
      </trkpt>
      <trkpt lat="43.23015" lon="5.43713">
        <ele>145</ele>
        <time>2012-08-08T05:28:03Z</time>
      </trkpt>
      <trkpt lat="43.23016" lon="5.43709">
        <ele>145</ele>
        <time>2012-08-08T05:28:48Z</time>
      </trkpt>
      <trkpt lat="43.23019" lon="5.43711">
        <ele>145</ele>
        <time>2012-08-08T05:29:38Z</time>
      </trkpt>
      <trkpt lat="43.23016" lon="5.43713">
        <ele>145</ele>
        <time>2012-08-08T05:30:19Z</time>
      </trkpt>
      <trkpt lat="43.23018" lon="5.43705">
        <ele>145</ele>
        <time>2012-08-08T05:30:55Z</time>
      </trkpt>
      <trkpt lat="43.23018" lon="5.43713">
        <ele>145</ele>
        <time>2012-08-08T05:31:39Z</time>
      </trkpt>
      <trkpt lat="43.23019" lon="5.43708">
        <ele>145</ele>
        <time>2012-08-08T05:32:22Z</time>
      </trkpt>
      <trkpt lat="43.23019" lon="5.43712">
        <ele>145</ele>
        <time>2012-08-08T05:33:04Z</time>
      </trkpt>
      <trkpt lat="43.23019" lon="5.43712">
        <ele>145</ele>
        <time>2012-08-08T05:33:44Z</time>
      </trkpt>
      <trkpt lat="43.23019" lon="5.43705">
        <ele>145</ele>
        <time>2012-08-08T05:34:21Z</time>
      </trkpt>
      <trkpt lat="43.23018" lon="5.43711">
        <ele>145</ele>
        <time>2012-08-08T05:34:39Z</time>
      </trkpt>
      <trkpt lat="43.23017" lon="5.43709">
        <ele>145</ele>
        <time>2012-08-08T05:34:53Z</time>
      </trkpt>
      <trkpt lat="43.23006" lon="5.43707">
        <ele>145</ele>
        <time>2012-08-08T05:35:08Z</time>
      </trkpt>
      <trkpt lat="43.22991" lon="5.43714">
        <ele>150</ele>
        <time>2012-08-08T05:35:25Z</time>
      </trkpt>
      <trkpt lat="43.22984" lon="5.43713">
        <ele>150</ele>
        <time>2012-08-08T05:35:32Z</time>
      </trkpt>
      <trkpt lat="43.22967" lon="5.43714">
        <ele>151</ele>
        <time>2012-08-08T05:35:44Z</time>
      </trkpt>
      <trkpt lat="43.22949" lon="5.43711">
        <ele>152</ele>
        <time>2012-08-08T05:35:57Z</time>
      </trkpt>
      <trkpt lat="43.22944" lon="5.43711">
        <ele>152</ele>
        <time>2012-08-08T05:36:01Z</time>
      </trkpt>
      <trkpt lat="43.22932" lon="5.43714">
        <ele>153</ele>
        <time>2012-08-08T05:36:09Z</time>
      </trkpt>
      <trkpt lat="43.22925" lon="5.43717">
        <ele>153</ele>
        <time>2012-08-08T05:36:14Z</time>
      </trkpt>
      <trkpt lat="43.22902" lon="5.43718">
        <ele>158</ele>
        <time>2012-08-08T05:36:33Z</time>
      </trkpt>
      <trkpt lat="43.22881" lon="5.43723">
        <ele>159</ele>
        <time>2012-08-08T05:36:49Z</time>
      </trkpt>
      <trkpt lat="43.2286" lon="5.43723">
        <ele>160</ele>
        <time>2012-08-08T05:37:07Z</time>
      </trkpt>
      <trkpt lat="43.2284" lon="5.43725">
        <ele>160</ele>
        <time>2012-08-08T05:37:24Z</time>
      </trkpt>
      <trkpt lat="43.22819" lon="5.43729">
        <ele>163</ele>
        <time>2012-08-08T05:37:41Z</time>
      </trkpt>
      <trkpt lat="43.22795" lon="5.43729">
        <ele>164</ele>
        <time>2012-08-08T05:37:59Z</time>
      </trkpt>
      <trkpt lat="43.22772" lon="5.43721">
        <ele>164</ele>
        <time>2012-08-08T05:38:17Z</time>
      </trkpt>
      <trkpt lat="43.22749" lon="5.43726">
        <ele>166</ele>
        <time>2012-08-08T05:38:34Z</time>
      </trkpt>
      <trkpt lat="43.22726" lon="5.43732">
        <ele>166</ele>
        <time>2012-08-08T05:38:52Z</time>
      </trkpt>
      <trkpt lat="43.227" lon="5.43749">
        <ele>167</ele>
        <time>2012-08-08T05:39:14Z</time>
      </trkpt>
      <trkpt lat="43.22691" lon="5.43755">
        <ele>166</ele>
        <time>2012-08-08T05:39:20Z</time>
      </trkpt>
      <trkpt lat="43.22689" lon="5.43756">
        <ele>166</ele>
        <time>2012-08-08T05:39:22Z</time>
      </trkpt>
      <trkpt lat="43.22675" lon="5.43769">
        <ele>166</ele>
        <time>2012-08-08T05:39:38Z</time>
      </trkpt>
      <trkpt lat="43.22666" lon="5.43774">
        <ele>168</ele>
        <time>2012-08-08T05:39:51Z</time>
      </trkpt>
      <trkpt lat="43.22663" lon="5.43779">
        <ele>168</ele>
        <time>2012-08-08T05:39:58Z</time>
      </trkpt>
      <trkpt lat="43.22661" lon="5.43781">
        <ele>168</ele>
        <time>2012-08-08T05:40:01Z</time>
      </trkpt>
      <trkpt lat="43.22643" lon="5.43791">
        <ele>168</ele>
        <time>2012-08-08T05:40:17Z</time>
      </trkpt>
      <trkpt lat="43.22623" lon="5.43801">
        <ele>168</ele>
        <time>2012-08-08T05:40:33Z</time>
      </trkpt>
      <trkpt lat="43.22605" lon="5.43808">
        <ele>168</ele>
        <time>2012-08-08T05:40:48Z</time>
      </trkpt>
      <trkpt lat="43.22581" lon="5.43813">
        <ele>170</ele>
        <time>2012-08-08T05:41:06Z</time>
      </trkpt>
      <trkpt lat="43.2256" lon="5.43813">
        <ele>170</ele>
        <time>2012-08-08T05:41:22Z</time>
      </trkpt>
      <trkpt lat="43.22538" lon="5.43815">
        <ele>171</ele>
        <time>2012-08-08T05:41:40Z</time>
      </trkpt>
      <trkpt lat="43.22511" lon="5.43816">
        <ele>171</ele>
        <time>2012-08-08T05:41:58Z</time>
      </trkpt>
      <trkpt lat="43.2248" lon="5.43816">
        <ele>171</ele>
        <time>2012-08-08T05:42:20Z</time>
      </trkpt>
      <trkpt lat="43.22463" lon="5.43814">
        <ele>171</ele>
        <time>2012-08-08T05:42:35Z</time>
      </trkpt>
      <trkpt lat="43.22454" lon="5.4382">
        <ele>171</ele>
        <time>2012-08-08T05:42:44Z</time>
      </trkpt>
      <trkpt lat="43.2244" lon="5.43837">
        <ele>170</ele>
        <time>2012-08-08T05:42:59Z</time>
      </trkpt>
      <trkpt lat="43.22429" lon="5.4384">
        <ele>169</ele>
        <time>2012-08-08T05:43:16Z</time>
      </trkpt>
      <trkpt lat="43.22427" lon="5.43841">
        <ele>169</ele>
        <time>2012-08-08T05:43:31Z</time>
      </trkpt>
      <trkpt lat="43.22429" lon="5.43842">
        <ele>170</ele>
        <time>2012-08-08T05:43:44Z</time>
      </trkpt>
      <trkpt lat="43.22438" lon="5.43861">
        <ele>171</ele>
        <time>2012-08-08T05:43:59Z</time>
      </trkpt>
      <trkpt lat="43.22444" lon="5.43881">
        <ele>172</ele>
        <time>2012-08-08T05:44:15Z</time>
      </trkpt>
      <trkpt lat="43.22451" lon="5.43903">
        <ele>172</ele>
        <time>2012-08-08T05:44:31Z</time>
      </trkpt>
      <trkpt lat="43.22457" lon="5.43925">
        <ele>178</ele>
        <time>2012-08-08T05:44:49Z</time>
      </trkpt>
      <trkpt lat="43.22464" lon="5.43944">
        <ele>179</ele>
        <time>2012-08-08T05:45:04Z</time>
      </trkpt>
      <trkpt lat="43.22468" lon="5.43954">
        <ele>180</ele>
        <time>2012-08-08T05:45:11Z</time>
      </trkpt>
      <trkpt lat="43.2247" lon="5.43962">
        <ele>180</ele>
        <time>2012-08-08T05:45:17Z</time>
      </trkpt>
      <trkpt lat="43.22473" lon="5.43972">
        <ele>181</ele>
        <time>2012-08-08T05:45:27Z</time>
      </trkpt>
      <trkpt lat="43.22475" lon="5.43976">
        <ele>181</ele>
        <time>2012-08-08T05:45:30Z</time>
      </trkpt>
      <trkpt lat="43.22477" lon="5.43982">
        <ele>182</ele>
        <time>2012-08-08T05:45:34Z</time>
      </trkpt>
      <trkpt lat="43.22485" lon="5.43997">
        <ele>183</ele>
        <time>2012-08-08T05:45:49Z</time>
      </trkpt>
      <trkpt lat="43.22485" lon="5.43999">
        <ele>183</ele>
        <time>2012-08-08T05:46:08Z</time>
      </trkpt>
      <trkpt lat="43.22477" lon="5.43999">
        <ele>183</ele>
        <time>2012-08-08T05:46:23Z</time>
      </trkpt>
      <trkpt lat="43.22465" lon="5.44007">
        <ele>188</ele>
        <time>2012-08-08T05:46:39Z</time>
      </trkpt>
      <trkpt lat="43.22461" lon="5.44016">
        <ele>188</ele>
        <time>2012-08-08T05:46:55Z</time>
      </trkpt>
      <trkpt lat="43.22457" lon="5.44028">
        <ele>188</ele>
        <time>2012-08-08T05:47:09Z</time>
      </trkpt>
      <trkpt lat="43.2245" lon="5.44034">
        <ele>189</ele>
        <time>2012-08-08T05:47:18Z</time>
      </trkpt>
      <trkpt lat="43.22449" lon="5.44037">
        <ele>189</ele>
        <time>2012-08-08T05:47:21Z</time>
      </trkpt>
      <trkpt lat="43.22447" lon="5.4404">
        <ele>189</ele>
        <time>2012-08-08T05:47:23Z</time>
      </trkpt>
      <trkpt lat="43.22444" lon="5.44062">
        <ele>190</ele>
        <time>2012-08-08T05:47:39Z</time>
      </trkpt>
      <trkpt lat="43.22438" lon="5.44074">
        <ele>192</ele>
        <time>2012-08-08T05:47:52Z</time>
      </trkpt>
      <trkpt lat="43.22414" lon="5.44097">
        <ele>196</ele>
        <time>2012-08-08T05:48:10Z</time>
      </trkpt>
      <trkpt lat="43.22397" lon="5.4411">
        <ele>196</ele>
        <time>2012-08-08T05:48:25Z</time>
      </trkpt>
      <trkpt lat="43.22374" lon="5.44129">
        <ele>196</ele>
        <time>2012-08-08T05:48:42Z</time>
      </trkpt>
      <trkpt lat="43.22368" lon="5.44134">
        <ele>196</ele>
        <time>2012-08-08T05:48:48Z</time>
      </trkpt>
      <trkpt lat="43.22354" lon="5.44151">
        <ele>197</ele>
        <time>2012-08-08T05:49:04Z</time>
      </trkpt>
      <trkpt lat="43.22345" lon="5.4416">
        <ele>198</ele>
        <time>2012-08-08T05:49:17Z</time>
      </trkpt>
      <trkpt lat="43.22342" lon="5.44162">
        <ele>198</ele>
        <time>2012-08-08T05:49:21Z</time>
      </trkpt>
      <trkpt lat="43.22327" lon="5.44175">
        <ele>199</ele>
        <time>2012-08-08T05:49:37Z</time>
      </trkpt>
      <trkpt lat="43.22315" lon="5.44184">
        <ele>198</ele>
        <time>2012-08-08T05:49:52Z</time>
      </trkpt>
      <trkpt lat="43.22297" lon="5.44197">
        <ele>197</ele>
        <time>2012-08-08T05:50:06Z</time>
      </trkpt>
      <trkpt lat="43.22263" lon="5.44214">
        <ele>197</ele>
        <time>2012-08-08T05:50:23Z</time>
      </trkpt>
      <trkpt lat="43.22241" lon="5.44224">
        <ele>197</ele>
        <time>2012-08-08T05:50:38Z</time>
      </trkpt>
      <trkpt lat="43.22222" lon="5.44236">
        <ele>197</ele>
        <time>2012-08-08T05:50:52Z</time>
      </trkpt>
      <trkpt lat="43.22203" lon="5.44251">
        <ele>199</ele>
        <time>2012-08-08T05:51:10Z</time>
      </trkpt>
      <trkpt lat="43.22183" lon="5.44265">
        <ele>200</ele>
        <time>2012-08-08T05:51:24Z</time>
      </trkpt>
      <trkpt lat="43.22175" lon="5.44269">
        <ele>201</ele>
        <time>2012-08-08T05:51:43Z</time>
      </trkpt>
      <trkpt lat="43.22165" lon="5.44282">
        <ele>202</ele>
        <time>2012-08-08T05:52:00Z</time>
      </trkpt>
      <trkpt lat="43.22154" lon="5.44298">
        <ele>203</ele>
        <time>2012-08-08T05:52:18Z</time>
      </trkpt>
      <trkpt lat="43.22141" lon="5.44317">
        <ele>203</ele>
        <time>2012-08-08T05:52:35Z</time>
      </trkpt>
      <trkpt lat="43.22134" lon="5.44343">
        <ele>208</ele>
        <time>2012-08-08T05:52:51Z</time>
      </trkpt>
      <trkpt lat="43.22128" lon="5.44367">
        <ele>209</ele>
        <time>2012-08-08T05:53:07Z</time>
      </trkpt>
      <trkpt lat="43.22118" lon="5.44378">
        <ele>210</ele>
        <time>2012-08-08T05:53:24Z</time>
      </trkpt>
      <trkpt lat="43.22109" lon="5.44374">
        <ele>210</ele>
        <time>2012-08-08T05:53:39Z</time>
      </trkpt>
      <trkpt lat="43.22106" lon="5.44375">
        <ele>210</ele>
        <time>2012-08-08T05:54:00Z</time>
      </trkpt>
      <trkpt lat="43.22108" lon="5.44374">
        <ele>210</ele>
        <time>2012-08-08T05:54:18Z</time>
      </trkpt>
      <trkpt lat="43.22109" lon="5.44374">
        <ele>210</ele>
        <time>2012-08-08T05:54:35Z</time>
      </trkpt>
      <trkpt lat="43.22099" lon="5.44384">
        <ele>211</ele>
        <time>2012-08-08T05:54:51Z</time>
      </trkpt>
      <trkpt lat="43.22085" lon="5.444">
        <ele>212</ele>
        <time>2012-08-08T05:55:08Z</time>
      </trkpt>
      <trkpt lat="43.22072" lon="5.44415">
        <ele>211</ele>
        <time>2012-08-08T05:55:22Z</time>
      </trkpt>
      <trkpt lat="43.22068" lon="5.4442">
        <ele>214</ele>
        <time>2012-08-08T05:55:27Z</time>
      </trkpt>
      <trkpt lat="43.22057" lon="5.44431">
        <ele>214</ele>
        <time>2012-08-08T05:55:38Z</time>
      </trkpt>
      <trkpt lat="43.22045" lon="5.44448">
        <ele>213</ele>
        <time>2012-08-08T05:55:52Z</time>
      </trkpt>
      <trkpt lat="43.22036" lon="5.44461">
        <ele>214</ele>
        <time>2012-08-08T05:56:07Z</time>
      </trkpt>
      <trkpt lat="43.2202" lon="5.44474">
        <ele>213</ele>
        <time>2012-08-08T05:56:23Z</time>
      </trkpt>
      <trkpt lat="43.22003" lon="5.44488">
        <ele>213</ele>
        <time>2012-08-08T05:56:38Z</time>
      </trkpt>
      <trkpt lat="43.21987" lon="5.44503">
        <ele>213</ele>
        <time>2012-08-08T05:56:53Z</time>
      </trkpt>
      <trkpt lat="43.21967" lon="5.4452">
        <ele>212</ele>
        <time>2012-08-08T05:57:08Z</time>
      </trkpt>
      <trkpt lat="43.21963" lon="5.44538">
        <ele>213</ele>
        <time>2012-08-08T05:57:22Z</time>
      </trkpt>
      <trkpt lat="43.21959" lon="5.44547">
        <ele>213</ele>
        <time>2012-08-08T05:57:28Z</time>
      </trkpt>
      <trkpt lat="43.21949" lon="5.44555">
        <ele>212</ele>
        <time>2012-08-08T05:57:33Z</time>
      </trkpt>
      <trkpt lat="43.21933" lon="5.44573">
        <ele>212</ele>
        <time>2012-08-08T05:57:45Z</time>
      </trkpt>
      <trkpt lat="43.2192" lon="5.44589">
        <ele>213</ele>
        <time>2012-08-08T05:57:54Z</time>
      </trkpt>
      <trkpt lat="43.21901" lon="5.44613">
        <ele>214</ele>
        <time>2012-08-08T05:58:11Z</time>
      </trkpt>
      <trkpt lat="43.21892" lon="5.44644">
        <ele>215</ele>
        <time>2012-08-08T05:58:28Z</time>
      </trkpt>
      <trkpt lat="43.21887" lon="5.44668">
        <ele>216</ele>
        <time>2012-08-08T05:58:42Z</time>
      </trkpt>
      <trkpt lat="43.21883" lon="5.44684">
        <ele>216</ele>
        <time>2012-08-08T05:58:55Z</time>
      </trkpt>
      <trkpt lat="43.2188" lon="5.44693">
        <ele>216</ele>
        <time>2012-08-08T05:59:08Z</time>
      </trkpt>
      <trkpt lat="43.2188" lon="5.447">
        <ele>216</ele>
        <time>2012-08-08T05:59:22Z</time>
      </trkpt>
      <trkpt lat="43.21878" lon="5.44706">
        <ele>216</ele>
        <time>2012-08-08T05:59:28Z</time>
      </trkpt>
      <trkpt lat="43.21885" lon="5.44727">
        <ele>216</ele>
        <time>2012-08-08T05:59:44Z</time>
      </trkpt>
      <trkpt lat="43.21887" lon="5.44761">
        <ele>217</ele>
        <time>2012-08-08T06:00:03Z</time>
      </trkpt>
      <trkpt lat="43.21878" lon="5.44787">
        <ele>217</ele>
        <time>2012-08-08T06:00:21Z</time>
      </trkpt>
      <trkpt lat="43.21879" lon="5.44821">
        <ele>218</ele>
        <time>2012-08-08T06:00:40Z</time>
      </trkpt>
      <trkpt lat="43.21869" lon="5.44847">
        <ele>223</ele>
        <time>2012-08-08T06:00:57Z</time>
      </trkpt>
      <trkpt lat="43.21848" lon="5.44853">
        <ele>220</ele>
        <time>2012-08-08T06:01:11Z</time>
      </trkpt>
      <trkpt lat="43.21829" lon="5.44855">
        <ele>208</ele>
        <time>2012-08-08T06:01:25Z</time>
      </trkpt>
      <trkpt lat="43.21813" lon="5.44866">
        <ele>209</ele>
        <time>2012-08-08T06:01:41Z</time>
      </trkpt>
      <trkpt lat="43.21811" lon="5.44868">
        <ele>209</ele>
        <time>2012-08-08T06:01:43Z</time>
      </trkpt>
      <trkpt lat="43.21805" lon="5.44891">
        <ele>211</ele>
        <time>2012-08-08T06:01:59Z</time>
      </trkpt>
      <trkpt lat="43.21799" lon="5.44907">
        <ele>212</ele>
        <time>2012-08-08T06:02:11Z</time>
      </trkpt>
      <trkpt lat="43.2179" lon="5.44906">
        <ele>211</ele>
        <time>2012-08-08T06:02:19Z</time>
      </trkpt>
      <trkpt lat="43.21766" lon="5.44907">
        <ele>209</ele>
        <time>2012-08-08T06:02:37Z</time>
      </trkpt>
      <trkpt lat="43.21745" lon="5.44911">
        <ele>205</ele>
        <time>2012-08-08T06:02:52Z</time>
      </trkpt>
      <trkpt lat="43.21726" lon="5.44928">
        <ele>209</ele>
        <time>2012-08-08T06:03:11Z</time>
      </trkpt>
      <trkpt lat="43.21714" lon="5.44936">
        <ele>209</ele>
        <time>2012-08-08T06:03:20Z</time>
      </trkpt>
      <trkpt lat="43.21698" lon="5.44952">
        <ele>208</ele>
        <time>2012-08-08T06:03:37Z</time>
      </trkpt>
      <trkpt lat="43.21686" lon="5.44991">
        <ele>208</ele>
        <time>2012-08-08T06:04:00Z</time>
      </trkpt>
      <trkpt lat="43.21677" lon="5.45027">
        <ele>213</ele>
        <time>2012-08-08T06:04:21Z</time>
      </trkpt>
      <trkpt lat="43.21688" lon="5.45046">
        <ele>215</ele>
        <time>2012-08-08T06:04:37Z</time>
      </trkpt>
      <trkpt lat="43.21697" lon="5.45061">
        <ele>216</ele>
        <time>2012-08-08T06:04:49Z</time>
      </trkpt>
      <trkpt lat="43.21709" lon="5.45085">
        <ele>221</ele>
        <time>2012-08-08T06:05:07Z</time>
      </trkpt>
      <trkpt lat="43.21717" lon="5.45112">
        <ele>223</ele>
        <time>2012-08-08T06:05:25Z</time>
      </trkpt>
      <trkpt lat="43.21718" lon="5.45136">
        <ele>223</ele>
        <time>2012-08-08T06:05:40Z</time>
      </trkpt>
      <trkpt lat="43.21719" lon="5.45159">
        <ele>224</ele>
        <time>2012-08-08T06:05:53Z</time>
      </trkpt>
      <trkpt lat="43.21719" lon="5.45166">
        <ele>225</ele>
        <time>2012-08-08T06:05:57Z</time>
      </trkpt>
      <trkpt lat="43.2172" lon="5.45173">
        <ele>228</ele>
        <time>2012-08-08T06:06:01Z</time>
      </trkpt>
      <trkpt lat="43.21722" lon="5.45199">
        <ele>228</ele>
        <time>2012-08-08T06:06:16Z</time>
      </trkpt>
      <trkpt lat="43.21727" lon="5.45231">
        <ele>231</ele>
        <time>2012-08-08T06:06:35Z</time>
      </trkpt>
      <trkpt lat="43.21734" lon="5.45257">
        <ele>244</ele>
        <time>2012-08-08T06:06:52Z</time>
      </trkpt>
      <trkpt lat="43.21726" lon="5.45284">
        <ele>247</ele>
        <time>2012-08-08T06:07:09Z</time>
      </trkpt>
      <trkpt lat="43.21718" lon="5.45282">
        <ele>247</ele>
        <time>2012-08-08T06:07:19Z</time>
      </trkpt>
      <trkpt lat="43.21693" lon="5.45269">
        <ele>242</ele>
        <time>2012-08-08T06:07:39Z</time>
      </trkpt>
      <trkpt lat="43.21665" lon="5.45249">
        <ele>223</ele>
        <time>2012-08-08T06:07:58Z</time>
      </trkpt>
      <trkpt lat="43.2164" lon="5.45226">
        <ele>217</ele>
        <time>2012-08-08T06:08:19Z</time>
      </trkpt>
      <trkpt lat="43.2162" lon="5.45216">
        <ele>216</ele>
        <time>2012-08-08T06:08:35Z</time>
      </trkpt>
      <trkpt lat="43.21596" lon="5.45197">
        <ele>213</ele>
        <time>2012-08-08T06:08:55Z</time>
      </trkpt>
      <trkpt lat="43.21593" lon="5.45196">
        <ele>213</ele>
        <time>2012-08-08T06:08:59Z</time>
      </trkpt>
      <trkpt lat="43.21592" lon="5.45194">
        <ele>212</ele>
        <time>2012-08-08T06:09:01Z</time>
      </trkpt>
      <trkpt lat="43.21596" lon="5.4519">
        <ele>211</ele>
        <time>2012-08-08T06:09:12Z</time>
      </trkpt>
      <trkpt lat="43.21596" lon="5.45192">
        <ele>212</ele>
        <time>2012-08-08T06:09:26Z</time>
      </trkpt>
      <trkpt lat="43.21595" lon="5.45193">
        <ele>212</ele>
        <time>2012-08-08T06:09:34Z</time>
      </trkpt>
      <trkpt lat="43.21593" lon="5.45202">
        <ele>214</ele>
        <time>2012-08-08T06:09:41Z</time>
      </trkpt>
      <trkpt lat="43.21583" lon="5.45225">
        <ele>219</ele>
        <time>2012-08-08T06:09:59Z</time>
      </trkpt>
      <trkpt lat="43.21577" lon="5.45238">
        <ele>223</ele>
        <time>2012-08-08T06:10:12Z</time>
      </trkpt>
      <trkpt lat="43.21573" lon="5.45245">
        <ele>225</ele>
        <time>2012-08-08T06:10:21Z</time>
      </trkpt>
      <trkpt lat="43.21571" lon="5.45249">
        <ele>224</ele>
        <time>2012-08-08T06:10:25Z</time>
      </trkpt>
      <trkpt lat="43.21565" lon="5.45263">
        <ele>231</ele>
        <time>2012-08-08T06:10:40Z</time>
      </trkpt>
      <trkpt lat="43.21562" lon="5.45268">
        <ele>232</ele>
        <time>2012-08-08T06:10:46Z</time>
      </trkpt>
      <trkpt lat="43.21559" lon="5.45271">
        <ele>232</ele>
        <time>2012-08-08T06:10:50Z</time>
      </trkpt>
      <trkpt lat="43.21558" lon="5.45273">
        <ele>232</ele>
        <time>2012-08-08T06:10:52Z</time>
      </trkpt>
      <trkpt lat="43.21549" lon="5.45285">
        <ele>232</ele>
        <time>2012-08-08T06:11:07Z</time>
      </trkpt>
      <trkpt lat="43.21548" lon="5.45291">
        <ele>232</ele>
        <time>2012-08-08T06:11:12Z</time>
      </trkpt>
      <trkpt lat="43.21556" lon="5.4531">
        <ele>235</ele>
        <time>2012-08-08T06:11:28Z</time>
      </trkpt>
      <trkpt lat="43.21557" lon="5.45311">
        <ele>236</ele>
        <time>2012-08-08T06:11:30Z</time>
      </trkpt>
      <trkpt lat="43.2156" lon="5.4531">
        <ele>236</ele>
        <time>2012-08-08T06:11:34Z</time>
      </trkpt>
      <trkpt lat="43.21568" lon="5.45304">
        <ele>237</ele>
        <time>2012-08-08T06:11:46Z</time>
      </trkpt>
      <trkpt lat="43.21579" lon="5.45301">
        <ele>237</ele>
        <time>2012-08-08T06:12:00Z</time>
      </trkpt>
      <trkpt lat="43.21581" lon="5.453">
        <ele>237</ele>
        <time>2012-08-08T06:12:03Z</time>
      </trkpt>
      <trkpt lat="43.21593" lon="5.45298">
        <ele>244</ele>
        <time>2012-08-08T06:12:17Z</time>
      </trkpt>
      <trkpt lat="43.21598" lon="5.45302">
        <ele>244</ele>
        <time>2012-08-08T06:12:29Z</time>
      </trkpt>
      <trkpt lat="43.21596" lon="5.45301">
        <ele>244</ele>
        <time>2012-08-08T06:12:42Z</time>
      </trkpt>
      <trkpt lat="43.21595" lon="5.45301">
        <ele>244</ele>
        <time>2012-08-08T06:13:10Z</time>
      </trkpt>
      <trkpt lat="43.21595" lon="5.453">
        <ele>244</ele>
        <time>2012-08-08T06:13:20Z</time>
      </trkpt>
      <trkpt lat="43.21595" lon="5.45298">
        <ele>244</ele>
        <time>2012-08-08T06:13:22Z</time>
      </trkpt>
      <trkpt lat="43.21596" lon="5.45304">
        <ele>245</ele>
        <time>2012-08-08T06:13:31Z</time>
      </trkpt>
      <trkpt lat="43.21589" lon="5.45323">
        <ele>249</ele>
        <time>2012-08-08T06:13:45Z</time>
      </trkpt>
      <trkpt lat="43.21582" lon="5.45336">
        <ele>251</ele>
        <time>2012-08-08T06:13:57Z</time>
      </trkpt>
      <trkpt lat="43.21579" lon="5.45358">
        <ele>246</ele>
        <time>2012-08-08T06:14:11Z</time>
      </trkpt>
      <trkpt lat="43.21576" lon="5.45396">
        <ele>250</ele>
        <time>2012-08-08T06:14:32Z</time>
      </trkpt>
      <trkpt lat="43.21572" lon="5.45415">
        <ele>254</ele>
        <time>2012-08-08T06:14:43Z</time>
      </trkpt>
      <trkpt lat="43.21572" lon="5.45435">
        <ele>254</ele>
        <time>2012-08-08T06:14:53Z</time>
      </trkpt>
      <trkpt lat="43.21576" lon="5.45442">
        <ele>254</ele>
        <time>2012-08-08T06:14:59Z</time>
      </trkpt>
      <trkpt lat="43.21587" lon="5.45454">
        <ele>275</ele>
        <time>2012-08-08T06:15:12Z</time>
      </trkpt>
      <trkpt lat="43.21589" lon="5.45457">
        <ele>276</ele>
        <time>2012-08-08T06:15:14Z</time>
      </trkpt>
      <trkpt lat="43.216" lon="5.45468">
        <ele>277</ele>
        <time>2012-08-08T06:15:29Z</time>
      </trkpt>
      <trkpt lat="43.21603" lon="5.45471">
        <ele>278</ele>
        <time>2012-08-08T06:15:39Z</time>
      </trkpt>
      <trkpt lat="43.21606" lon="5.45471">
        <ele>278</ele>
        <time>2012-08-08T06:16:14Z</time>
      </trkpt>
      <trkpt lat="43.21605" lon="5.45471">
        <ele>278</ele>
        <time>2012-08-08T06:16:37Z</time>
      </trkpt>
      <trkpt lat="43.21606" lon="5.4547">
        <ele>278</ele>
        <time>2012-08-08T06:17:08Z</time>
      </trkpt>
      <trkpt lat="43.21605" lon="5.4547">
        <ele>278</ele>
        <time>2012-08-08T06:17:49Z</time>
      </trkpt>
      <trkpt lat="43.21605" lon="5.45469">
        <ele>278</ele>
        <time>2012-08-08T06:18:24Z</time>
      </trkpt>
      <trkpt lat="43.21604" lon="5.45469">
        <ele>278</ele>
        <time>2012-08-08T06:19:02Z</time>
      </trkpt>
      <trkpt lat="43.21604" lon="5.45469">
        <ele>278</ele>
        <time>2012-08-08T06:19:40Z</time>
      </trkpt>
      <trkpt lat="43.21606" lon="5.45477">
        <ele>278</ele>
        <time>2012-08-08T06:19:54Z</time>
      </trkpt>
      <trkpt lat="43.21613" lon="5.45484">
        <ele>280</ele>
        <time>2012-08-08T06:20:10Z</time>
      </trkpt>
      <trkpt lat="43.21616" lon="5.45495">
        <ele>280</ele>
        <time>2012-08-08T06:20:22Z</time>
      </trkpt>
      <trkpt lat="43.21616" lon="5.45499">
        <ele>281</ele>
        <time>2012-08-08T06:20:25Z</time>
      </trkpt>
      <trkpt lat="43.21617" lon="5.4551">
        <ele>287</ele>
        <time>2012-08-08T06:20:34Z</time>
      </trkpt>
      <trkpt lat="43.21617" lon="5.45513">
        <ele>288</ele>
        <time>2012-08-08T06:20:36Z</time>
      </trkpt>
      <trkpt lat="43.21622" lon="5.45531">
        <ele>290</ele>
        <time>2012-08-08T06:20:50Z</time>
      </trkpt>
      <trkpt lat="43.21625" lon="5.45546">
        <ele>291</ele>
        <time>2012-08-08T06:21:04Z</time>
      </trkpt>
      <trkpt lat="43.21628" lon="5.45558">
        <ele>293</ele>
        <time>2012-08-08T06:21:17Z</time>
      </trkpt>
      <trkpt lat="43.21632" lon="5.45572">
        <ele>295</ele>
        <time>2012-08-08T06:21:32Z</time>
      </trkpt>
      <trkpt lat="43.21633" lon="5.45576">
        <ele>296</ele>
        <time>2012-08-08T06:21:36Z</time>
      </trkpt>
      <trkpt lat="43.21634" lon="5.45581">
        <ele>297</ele>
        <time>2012-08-08T06:21:41Z</time>
      </trkpt>
      <trkpt lat="43.21638" lon="5.45602">
        <ele>299</ele>
        <time>2012-08-08T06:21:57Z</time>
      </trkpt>
      <trkpt lat="43.21639" lon="5.45603">
        <ele>299</ele>
        <time>2012-08-08T06:21:58Z</time>
      </trkpt>
      <trkpt lat="43.2164" lon="5.45609">
        <ele>299</ele>
        <time>2012-08-08T06:22:03Z</time>
      </trkpt>
      <trkpt lat="43.21643" lon="5.45631">
        <ele>299</ele>
        <time>2012-08-08T06:22:19Z</time>
      </trkpt>
      <trkpt lat="43.21647" lon="5.45647">
        <ele>301</ele>
        <time>2012-08-08T06:22:33Z</time>
      </trkpt>
      <trkpt lat="43.21652" lon="5.45661">
        <ele>306</ele>
        <time>2012-08-08T06:22:47Z</time>
      </trkpt>
      <trkpt lat="43.2166" lon="5.45678">
        <ele>305</ele>
        <time>2012-08-08T06:23:02Z</time>
      </trkpt>
      <trkpt lat="43.21669" lon="5.45692">
        <ele>328</ele>
        <time>2012-08-08T06:23:17Z</time>
      </trkpt>
      <trkpt lat="43.21681" lon="5.45705">
        <ele>330</ele>
        <time>2012-08-08T06:23:33Z</time>
      </trkpt>
      <trkpt lat="43.21691" lon="5.4572">
        <ele>331</ele>
        <time>2012-08-08T06:23:49Z</time>
      </trkpt>
      <trkpt lat="43.21697" lon="5.45728">
        <ele>331</ele>
        <time>2012-08-08T06:24:03Z</time>
      </trkpt>
      <trkpt lat="43.21701" lon="5.45732">
        <ele>332</ele>
        <time>2012-08-08T06:24:17Z</time>
      </trkpt>
      <trkpt lat="43.21705" lon="5.45743">
        <ele>333</ele>
        <time>2012-08-08T06:24:31Z</time>
      </trkpt>
      <trkpt lat="43.21709" lon="5.45751">
        <ele>331</ele>
        <time>2012-08-08T06:24:47Z</time>
      </trkpt>
      <trkpt lat="43.21713" lon="5.45758">
        <ele>333</ele>
        <time>2012-08-08T06:25:02Z</time>
      </trkpt>
      <trkpt lat="43.21712" lon="5.45763">
        <ele>333</ele>
        <time>2012-08-08T06:25:19Z</time>
      </trkpt>
      <trkpt lat="43.21716" lon="5.4577">
        <ele>334</ele>
        <time>2012-08-08T06:25:30Z</time>
      </trkpt>
      <trkpt lat="43.21719" lon="5.45773">
        <ele>335</ele>
        <time>2012-08-08T06:25:42Z</time>
      </trkpt>
      <trkpt lat="43.21723" lon="5.45772">
        <ele>336</ele>
        <time>2012-08-08T06:25:55Z</time>
      </trkpt>
      <trkpt lat="43.21733" lon="5.45772">
        <ele>339</ele>
        <time>2012-08-08T06:26:09Z</time>
      </trkpt>
      <trkpt lat="43.21739" lon="5.45772">
        <ele>341</ele>
        <time>2012-08-08T06:26:19Z</time>
      </trkpt>
      <trkpt lat="43.21743" lon="5.45773">
        <ele>341</ele>
        <time>2012-08-08T06:26:27Z</time>
      </trkpt>
      <trkpt lat="43.21749" lon="5.45773">
        <ele>342</ele>
        <time>2012-08-08T06:26:41Z</time>
      </trkpt>
      <trkpt lat="43.21754" lon="5.45772">
        <ele>366</ele>
        <time>2012-08-08T06:26:50Z</time>
      </trkpt>
      <trkpt lat="43.21757" lon="5.45772">
        <ele>367</ele>
        <time>2012-08-08T06:26:53Z</time>
      </trkpt>
      <trkpt lat="43.21762" lon="5.45771">
        <ele>367</ele>
        <time>2012-08-08T06:27:04Z</time>
      </trkpt>
      <trkpt lat="43.21766" lon="5.45774">
        <ele>369</ele>
        <time>2012-08-08T06:27:16Z</time>
      </trkpt>
      <trkpt lat="43.21771" lon="5.45776">
        <ele>371</ele>
        <time>2012-08-08T06:27:28Z</time>
      </trkpt>
      <trkpt lat="43.21774" lon="5.45777">
        <ele>372</ele>
        <time>2012-08-08T06:27:39Z</time>
      </trkpt>
      <trkpt lat="43.21779" lon="5.45777">
        <ele>374</ele>
        <time>2012-08-08T06:27:52Z</time>
      </trkpt>
      <trkpt lat="43.21783" lon="5.45777">
        <ele>375</ele>
        <time>2012-08-08T06:28:04Z</time>
      </trkpt>
      <trkpt lat="43.21789" lon="5.45774">
        <ele>377</ele>
        <time>2012-08-08T06:28:18Z</time>
      </trkpt>
      <trkpt lat="43.21794" lon="5.45778">
        <ele>378</ele>
        <time>2012-08-08T06:28:31Z</time>
      </trkpt>
      <trkpt lat="43.218" lon="5.45781">
        <ele>380</ele>
        <time>2012-08-08T06:28:43Z</time>
      </trkpt>
      <trkpt lat="43.21805" lon="5.45777">
        <ele>382</ele>
        <time>2012-08-08T06:28:55Z</time>
      </trkpt>
      <trkpt lat="43.21809" lon="5.45786">
        <ele>382</ele>
        <time>2012-08-08T06:29:06Z</time>
      </trkpt>
      <trkpt lat="43.21812" lon="5.45788">
        <ele>383</ele>
        <time>2012-08-08T06:29:18Z</time>
      </trkpt>
      <trkpt lat="43.21815" lon="5.45792">
        <ele>383</ele>
        <time>2012-08-08T06:29:30Z</time>
      </trkpt>
      <trkpt lat="43.21817" lon="5.45797">
        <ele>384</ele>
        <time>2012-08-08T06:29:42Z</time>
      </trkpt>
      <trkpt lat="43.21815" lon="5.45801">
        <ele>384</ele>
        <time>2012-08-08T06:29:55Z</time>
      </trkpt>
      <trkpt lat="43.21813" lon="5.45806">
        <ele>384</ele>
        <time>2012-08-08T06:30:07Z</time>
      </trkpt>
      <trkpt lat="43.21803" lon="5.45807">
        <ele>381</ele>
        <time>2012-08-08T06:30:23Z</time>
      </trkpt>
      <trkpt lat="43.218" lon="5.45802">
        <ele>380</ele>
        <time>2012-08-08T06:30:55Z</time>
      </trkpt>
      <trkpt lat="43.21797" lon="5.45794">
        <ele>379</ele>
        <time>2012-08-08T06:31:35Z</time>
      </trkpt>
      <trkpt lat="43.21797" lon="5.45794">
        <ele>379</ele>
        <time>2012-08-08T06:32:07Z</time>
      </trkpt>
      <trkpt lat="43.21796" lon="5.45791">
        <ele>379</ele>
        <time>2012-08-08T06:32:45Z</time>
      </trkpt>
      <trkpt lat="43.21795" lon="5.45792">
        <ele>379</ele>
        <time>2012-08-08T06:33:28Z</time>
      </trkpt>
      <trkpt lat="43.21797" lon="5.4579">
        <ele>379</ele>
        <time>2012-08-08T06:34:06Z</time>
      </trkpt>
      <trkpt lat="43.218" lon="5.45798">
        <ele>380</ele>
        <time>2012-08-08T06:34:44Z</time>
      </trkpt>
      <trkpt lat="43.21798" lon="5.45803">
        <ele>380</ele>
        <time>2012-08-08T06:35:24Z</time>
      </trkpt>
      <trkpt lat="43.21798" lon="5.458">
        <ele>380</ele>
        <time>2012-08-08T06:35:56Z</time>
      </trkpt>
      <trkpt lat="43.21795" lon="5.45802">
        <ele>379</ele>
        <time>2012-08-08T06:36:08Z</time>
      </trkpt>
      <trkpt lat="43.21802" lon="5.45808">
        <ele>381</ele>
        <time>2012-08-08T06:36:21Z</time>
      </trkpt>
      <trkpt lat="43.218" lon="5.45805">
        <ele>380</ele>
        <time>2012-08-08T06:36:38Z</time>
      </trkpt>
      <trkpt lat="43.21794" lon="5.45808">
        <ele>379</ele>
        <time>2012-08-08T06:36:48Z</time>
      </trkpt>
      <trkpt lat="43.21792" lon="5.45809">
        <ele>378</ele>
        <time>2012-08-08T06:37:18Z</time>
      </trkpt>
      <trkpt lat="43.21792" lon="5.45808">
        <ele>378</ele>
        <time>2012-08-08T06:37:53Z</time>
      </trkpt>
      <trkpt lat="43.21792" lon="5.45809">
        <ele>378</ele>
        <time>2012-08-08T06:38:06Z</time>
      </trkpt>
      <trkpt lat="43.2179" lon="5.45811">
        <ele>378</ele>
        <time>2012-08-08T06:38:25Z</time>
      </trkpt>
      <trkpt lat="43.21788" lon="5.45818">
        <ele>377</ele>
        <time>2012-08-08T06:38:41Z</time>
      </trkpt>
      <trkpt lat="43.21787" lon="5.45823">
        <ele>377</ele>
        <time>2012-08-08T06:38:50Z</time>
      </trkpt>
      <trkpt lat="43.21788" lon="5.45834">
        <ele>383</ele>
        <time>2012-08-08T06:39:02Z</time>
      </trkpt>
      <trkpt lat="43.21788" lon="5.45843">
        <ele>383</ele>
        <time>2012-08-08T06:39:16Z</time>
      </trkpt>
      <trkpt lat="43.21789" lon="5.45847">
        <ele>384</ele>
        <time>2012-08-08T06:39:29Z</time>
      </trkpt>
      <trkpt lat="43.21792" lon="5.45852">
        <ele>385</ele>
        <time>2012-08-08T06:39:43Z</time>
      </trkpt>
      <trkpt lat="43.21793" lon="5.45855">
        <ele>386</ele>
        <time>2012-08-08T06:39:46Z</time>
      </trkpt>
      <trkpt lat="43.21791" lon="5.45863">
        <ele>386</ele>
        <time>2012-08-08T06:39:52Z</time>
      </trkpt>
      <trkpt lat="43.2179" lon="5.45865">
        <ele>386</ele>
        <time>2012-08-08T06:39:54Z</time>
      </trkpt>
      <trkpt lat="43.21784" lon="5.45867">
        <ele>385</ele>
        <time>2012-08-08T06:39:59Z</time>
      </trkpt>
      <trkpt lat="43.21782" lon="5.45869">
        <ele>385</ele>
        <time>2012-08-08T06:40:01Z</time>
      </trkpt>
      <trkpt lat="43.21774" lon="5.45872">
        <ele>383</ele>
        <time>2012-08-08T06:40:08Z</time>
      </trkpt>
      <trkpt lat="43.21762" lon="5.45873">
        <ele>382</ele>
        <time>2012-08-08T06:40:18Z</time>
      </trkpt>
      <trkpt lat="43.21756" lon="5.4587">
        <ele>380</ele>
        <time>2012-08-08T06:40:32Z</time>
      </trkpt>
      <trkpt lat="43.21755" lon="5.45871">
        <ele>380</ele>
        <time>2012-08-08T06:40:49Z</time>
      </trkpt>
      <trkpt lat="43.21754" lon="5.4587">
        <ele>380</ele>
        <time>2012-08-08T06:40:51Z</time>
      </trkpt>
      <trkpt lat="43.21745" lon="5.45876">
        <ele>357</ele>
        <time>2012-08-08T06:40:59Z</time>
      </trkpt>
      <trkpt lat="43.21739" lon="5.45881">
        <ele>357</ele>
        <time>2012-08-08T06:41:06Z</time>
      </trkpt>
      <trkpt lat="43.21725" lon="5.45885">
        <ele>355</ele>
        <time>2012-08-08T06:41:20Z</time>
      </trkpt>
      <trkpt lat="43.21713" lon="5.45887">
        <ele>352</ele>
        <time>2012-08-08T06:41:33Z</time>
      </trkpt>
      <trkpt lat="43.21694" lon="5.45891">
        <ele>348</ele>
        <time>2012-08-08T06:41:49Z</time>
      </trkpt>
      <trkpt lat="43.21689" lon="5.45894">
        <ele>347</ele>
        <time>2012-08-08T06:42:06Z</time>
      </trkpt>
      <trkpt lat="43.21689" lon="5.45894">
        <ele>347</ele>
        <time>2012-08-08T06:42:24Z</time>
      </trkpt>
      <trkpt lat="43.21689" lon="5.45894">
        <ele>347</ele>
        <time>2012-08-08T06:42:28Z</time>
      </trkpt>
      <trkpt lat="43.21688" lon="5.45899">
        <ele>347</ele>
        <time>2012-08-08T06:42:33Z</time>
      </trkpt>
      <trkpt lat="43.21688" lon="5.45904">
        <ele>347</ele>
        <time>2012-08-08T06:42:37Z</time>
      </trkpt>
      <trkpt lat="43.21681" lon="5.45928">
        <ele>356</ele>
        <time>2012-08-08T06:42:55Z</time>
      </trkpt>
      <trkpt lat="43.2168" lon="5.45933">
        <ele>357</ele>
        <time>2012-08-08T06:43:00Z</time>
      </trkpt>
      <trkpt lat="43.2168" lon="5.45941">
        <ele>360</ele>
        <time>2012-08-08T06:43:08Z</time>
      </trkpt>
      <trkpt lat="43.2168" lon="5.45959">
        <ele>363</ele>
        <time>2012-08-08T06:43:24Z</time>
      </trkpt>
      <trkpt lat="43.21679" lon="5.45961">
        <ele>364</ele>
        <time>2012-08-08T06:43:25Z</time>
      </trkpt>
      <trkpt lat="43.21681" lon="5.45981">
        <ele>364</ele>
        <time>2012-08-08T06:43:41Z</time>
      </trkpt>
      <trkpt lat="43.21685" lon="5.45991">
        <ele>364</ele>
        <time>2012-08-08T06:43:55Z</time>
      </trkpt>
      <trkpt lat="43.21686" lon="5.45994">
        <ele>364</ele>
        <time>2012-08-08T06:43:58Z</time>
      </trkpt>
      <trkpt lat="43.21697" lon="5.46013">
        <ele>379</ele>
        <time>2012-08-08T06:44:14Z</time>
      </trkpt>
      <trkpt lat="43.21702" lon="5.46022">
        <ele>382</ele>
        <time>2012-08-08T06:44:23Z</time>
      </trkpt>
      <trkpt lat="43.21701" lon="5.46034">
        <ele>383</ele>
        <time>2012-08-08T06:44:30Z</time>
      </trkpt>
      <trkpt lat="43.21697" lon="5.46038">
        <ele>382</ele>
        <time>2012-08-08T06:44:34Z</time>
      </trkpt>
      <trkpt lat="43.21679" lon="5.46045">
        <ele>379</ele>
        <time>2012-08-08T06:44:51Z</time>
      </trkpt>
      <trkpt lat="43.21677" lon="5.46046">
        <ele>379</ele>
        <time>2012-08-08T06:44:53Z</time>
      </trkpt>
      <trkpt lat="43.21669" lon="5.46058">
        <ele>379</ele>
        <time>2012-08-08T06:45:06Z</time>
      </trkpt>
      <trkpt lat="43.2166" lon="5.46061">
        <ele>364</ele>
        <time>2012-08-08T06:45:15Z</time>
      </trkpt>
      <trkpt lat="43.21645" lon="5.46058">
        <ele>361</ele>
        <time>2012-08-08T06:45:29Z</time>
      </trkpt>
      <trkpt lat="43.21633" lon="5.4605">
        <ele>358</ele>
        <time>2012-08-08T06:45:42Z</time>
      </trkpt>
      <trkpt lat="43.21629" lon="5.46048">
        <ele>358</ele>
        <time>2012-08-08T06:45:47Z</time>
      </trkpt>
      <trkpt lat="43.21612" lon="5.46052">
        <ele>357</ele>
        <time>2012-08-08T06:46:02Z</time>
      </trkpt>
      <trkpt lat="43.2161" lon="5.46053">
        <ele>357</ele>
        <time>2012-08-08T06:46:05Z</time>
      </trkpt>
      <trkpt lat="43.21599" lon="5.46062">
        <ele>359</ele>
        <time>2012-08-08T06:46:17Z</time>
      </trkpt>
      <trkpt lat="43.2159" lon="5.46064">
        <ele>360</ele>
        <time>2012-08-08T06:46:33Z</time>
      </trkpt>
      <trkpt lat="43.21587" lon="5.46062">
        <ele>360</ele>
        <time>2012-08-08T06:46:47Z</time>
      </trkpt>
      <trkpt lat="43.21581" lon="5.46062">
        <ele>344</ele>
        <time>2012-08-08T06:47:04Z</time>
      </trkpt>
      <trkpt lat="43.21577" lon="5.4606">
        <ele>342</ele>
        <time>2012-08-08T06:47:18Z</time>
      </trkpt>
      <trkpt lat="43.21577" lon="5.4606">
        <ele>341</ele>
        <time>2012-08-08T06:47:19Z</time>
      </trkpt>
      <trkpt lat="43.21572" lon="5.46059">
        <ele>340</ele>
        <time>2012-08-08T06:47:23Z</time>
      </trkpt>
      <trkpt lat="43.21554" lon="5.4605">
        <ele>330</ele>
        <time>2012-08-08T06:47:39Z</time>
      </trkpt>
      <trkpt lat="43.21543" lon="5.46045">
        <ele>326</ele>
        <time>2012-08-08T06:47:53Z</time>
      </trkpt>
      <trkpt lat="43.21536" lon="5.46044">
        <ele>324</ele>
        <time>2012-08-08T06:48:09Z</time>
      </trkpt>
      <trkpt lat="43.21535" lon="5.46044">
        <ele>323</ele>
        <time>2012-08-08T06:48:27Z</time>
      </trkpt>
      <trkpt lat="43.21534" lon="5.46045">
        <ele>323</ele>
        <time>2012-08-08T06:48:30Z</time>
      </trkpt>
      <trkpt lat="43.21532" lon="5.46048">
        <ele>324</ele>
        <time>2012-08-08T06:48:34Z</time>
      </trkpt>
      <trkpt lat="43.21532" lon="5.4606">
        <ele>327</ele>
        <time>2012-08-08T06:48:45Z</time>
      </trkpt>
      <trkpt lat="43.21529" lon="5.46078">
        <ele>330</ele>
        <time>2012-08-08T06:48:57Z</time>
      </trkpt>
      <trkpt lat="43.21525" lon="5.46088">
        <ele>351</ele>
        <time>2012-08-08T06:49:08Z</time>
      </trkpt>
      <trkpt lat="43.21524" lon="5.46092">
        <ele>352</ele>
        <time>2012-08-08T06:49:11Z</time>
      </trkpt>
      <trkpt lat="43.21525" lon="5.46112">
        <ele>357</ele>
        <time>2012-08-08T06:49:23Z</time>
      </trkpt>
      <trkpt lat="43.21516" lon="5.46139">
        <ele>361</ele>
        <time>2012-08-08T06:49:39Z</time>
      </trkpt>
      <trkpt lat="43.21514" lon="5.4615">
        <ele>361</ele>
        <time>2012-08-08T06:49:48Z</time>
      </trkpt>
      <trkpt lat="43.21503" lon="5.46156">
        <ele>359</ele>
        <time>2012-08-08T06:50:00Z</time>
      </trkpt>
      <trkpt lat="43.21502" lon="5.46156">
        <ele>359</ele>
        <time>2012-08-08T06:50:01Z</time>
      </trkpt>
      <trkpt lat="43.21493" lon="5.46163">
        <ele>345</ele>
        <time>2012-08-08T06:50:09Z</time>
      </trkpt>
      <trkpt lat="43.21489" lon="5.46169">
        <ele>352</ele>
        <time>2012-08-08T06:50:13Z</time>
      </trkpt>
      <trkpt lat="43.21473" lon="5.46179">
        <ele>346</ele>
        <time>2012-08-08T06:50:27Z</time>
      </trkpt>
      <trkpt lat="43.21468" lon="5.46185">
        <ele>344</ele>
        <time>2012-08-08T06:50:32Z</time>
      </trkpt>
      <trkpt lat="43.21454" lon="5.46189">
        <ele>340</ele>
        <time>2012-08-08T06:50:45Z</time>
      </trkpt>
      <trkpt lat="43.21442" lon="5.4621">
        <ele>340</ele>
        <time>2012-08-08T06:50:59Z</time>
      </trkpt>
      <trkpt lat="43.2144" lon="5.46223">
        <ele>341</ele>
        <time>2012-08-08T06:51:06Z</time>
      </trkpt>
      <trkpt lat="43.21438" lon="5.46235">
        <ele>342</ele>
        <time>2012-08-08T06:51:13Z</time>
      </trkpt>
      <trkpt lat="43.21437" lon="5.46265">
        <ele>353</ele>
        <time>2012-08-08T06:51:32Z</time>
      </trkpt>
      <trkpt lat="43.21436" lon="5.46271">
        <ele>354</ele>
        <time>2012-08-08T06:51:47Z</time>
      </trkpt>
      <trkpt lat="43.21438" lon="5.46272">
        <ele>354</ele>
        <time>2012-08-08T06:52:02Z</time>
      </trkpt>
      <trkpt lat="43.2144" lon="5.46274">
        <ele>355</ele>
        <time>2012-08-08T06:52:23Z</time>
      </trkpt>
      <trkpt lat="43.2144" lon="5.46274">
        <ele>355</ele>
        <time>2012-08-08T06:52:51Z</time>
      </trkpt>
      <trkpt lat="43.21439" lon="5.46275">
        <ele>355</ele>
        <time>2012-08-08T06:53:16Z</time>
      </trkpt>
      <trkpt lat="43.21439" lon="5.46277">
        <ele>356</ele>
        <time>2012-08-08T06:53:27Z</time>
      </trkpt>
      <trkpt lat="43.21439" lon="5.46283">
        <ele>357</ele>
        <time>2012-08-08T06:53:32Z</time>
      </trkpt>
      <trkpt lat="43.2144" lon="5.46286">
        <ele>357</ele>
        <time>2012-08-08T06:53:35Z</time>
      </trkpt>
      <trkpt lat="43.21441" lon="5.4629">
        <ele>358</ele>
        <time>2012-08-08T06:53:39Z</time>
      </trkpt>
      <trkpt lat="43.21443" lon="5.46299">
        <ele>358</ele>
        <time>2012-08-08T06:53:48Z</time>
      </trkpt>
      <trkpt lat="43.21452" lon="5.46311">
        <ele>361</ele>
        <time>2012-08-08T06:54:01Z</time>
      </trkpt>
      <trkpt lat="43.21453" lon="5.46312">
        <ele>361</ele>
        <time>2012-08-08T06:54:03Z</time>
      </trkpt>
      <trkpt lat="43.21466" lon="5.46324">
        <ele>366</ele>
        <time>2012-08-08T06:54:19Z</time>
      </trkpt>
      <trkpt lat="43.21469" lon="5.46328">
        <ele>367</ele>
        <time>2012-08-08T06:54:23Z</time>
      </trkpt>
      <trkpt lat="43.21469" lon="5.46332">
        <ele>367</ele>
        <time>2012-08-08T06:54:26Z</time>
      </trkpt>
      <trkpt lat="43.21468" lon="5.46336">
        <ele>372</ele>
        <time>2012-08-08T06:54:29Z</time>
      </trkpt>
      <trkpt lat="43.21459" lon="5.46354">
        <ele>369</ele>
        <time>2012-08-08T06:54:44Z</time>
      </trkpt>
      <trkpt lat="43.21455" lon="5.46361">
        <ele>369</ele>
        <time>2012-08-08T06:54:50Z</time>
      </trkpt>
      <trkpt lat="43.2145" lon="5.46375">
        <ele>369</ele>
        <time>2012-08-08T06:55:04Z</time>
      </trkpt>
      <trkpt lat="43.21446" lon="5.46382">
        <ele>369</ele>
        <time>2012-08-08T06:55:11Z</time>
      </trkpt>
      <trkpt lat="43.21445" lon="5.46387">
        <ele>369</ele>
        <time>2012-08-08T06:55:15Z</time>
      </trkpt>
      <trkpt lat="43.21444" lon="5.46392">
        <ele>369</ele>
        <time>2012-08-08T06:55:18Z</time>
      </trkpt>
      <trkpt lat="43.21443" lon="5.46402">
        <ele>369</ele>
        <time>2012-08-08T06:55:25Z</time>
      </trkpt>
      <trkpt lat="43.21444" lon="5.46408">
        <ele>369</ele>
        <time>2012-08-08T06:55:30Z</time>
      </trkpt>
      <trkpt lat="43.21447" lon="5.46415">
        <ele>370</ele>
        <time>2012-08-08T06:55:37Z</time>
      </trkpt>
      <trkpt lat="43.21455" lon="5.46421">
        <ele>382</ele>
        <time>2012-08-08T06:55:50Z</time>
      </trkpt>
      <trkpt lat="43.21465" lon="5.46433">
        <ele>385</ele>
        <time>2012-08-08T06:56:05Z</time>
      </trkpt>
      <trkpt lat="43.21462" lon="5.46442">
        <ele>386</ele>
        <time>2012-08-08T06:56:19Z</time>
      </trkpt>
      <trkpt lat="43.2146" lon="5.46463">
        <ele>388</ele>
        <time>2012-08-08T06:56:31Z</time>
      </trkpt>
      <trkpt lat="43.21459" lon="5.46465">
        <ele>388</ele>
        <time>2012-08-08T06:56:33Z</time>
      </trkpt>
      <trkpt lat="43.21458" lon="5.46467">
        <ele>388</ele>
        <time>2012-08-08T06:56:35Z</time>
      </trkpt>
      <trkpt lat="43.21443" lon="5.46475">
        <ele>388</ele>
        <time>2012-08-08T06:56:48Z</time>
      </trkpt>
      <trkpt lat="43.21432" lon="5.46477">
        <ele>388</ele>
        <time>2012-08-08T06:56:57Z</time>
      </trkpt>
      <trkpt lat="43.21429" lon="5.46479">
        <ele>388</ele>
        <time>2012-08-08T06:57:02Z</time>
      </trkpt>
      <trkpt lat="43.21426" lon="5.46488">
        <ele>390</ele>
        <time>2012-08-08T06:57:13Z</time>
      </trkpt>
      <trkpt lat="43.21427" lon="5.46495">
        <ele>391</ele>
        <time>2012-08-08T06:57:23Z</time>
      </trkpt>
      <trkpt lat="43.21427" lon="5.46496">
        <ele>391</ele>
        <time>2012-08-08T06:57:26Z</time>
      </trkpt>
      <trkpt lat="43.21425" lon="5.46493">
        <ele>391</ele>
        <time>2012-08-08T06:57:43Z</time>
      </trkpt>
      <trkpt lat="43.21423" lon="5.46493">
        <ele>391</ele>
        <time>2012-08-08T06:57:58Z</time>
      </trkpt>
      <trkpt lat="43.21427" lon="5.46491">
        <ele>390</ele>
        <time>2012-08-08T06:58:22Z</time>
      </trkpt>
      <trkpt lat="43.21424" lon="5.46493">
        <ele>391</ele>
        <time>2012-08-08T06:58:56Z</time>
      </trkpt>
      <trkpt lat="43.21426" lon="5.46496">
        <ele>391</ele>
        <time>2012-08-08T06:59:18Z</time>
      </trkpt>
      <trkpt lat="43.21422" lon="5.465">
        <ele>392</ele>
        <time>2012-08-08T06:59:29Z</time>
      </trkpt>
      <trkpt lat="43.21421" lon="5.465">
        <ele>392</ele>
        <time>2012-08-08T06:59:48Z</time>
      </trkpt>
      <trkpt lat="43.21421" lon="5.46506">
        <ele>397</ele>
        <time>2012-08-08T06:59:57Z</time>
      </trkpt>
      <trkpt lat="43.21421" lon="5.46508">
        <ele>398</ele>
        <time>2012-08-08T07:00:00Z</time>
      </trkpt>
      <trkpt lat="43.21418" lon="5.46512">
        <ele>399</ele>
        <time>2012-08-08T07:00:04Z</time>
      </trkpt>
      <trkpt lat="43.21403" lon="5.46511">
        <ele>398</ele>
        <time>2012-08-08T07:00:20Z</time>
      </trkpt>
      <trkpt lat="43.21393" lon="5.46513">
        <ele>399</ele>
        <time>2012-08-08T07:00:35Z</time>
      </trkpt>
      <trkpt lat="43.21387" lon="5.46514">
        <ele>399</ele>
        <time>2012-08-08T07:00:40Z</time>
      </trkpt>
      <trkpt lat="43.21379" lon="5.46516">
        <ele>399</ele>
        <time>2012-08-08T07:00:56Z</time>
      </trkpt>
      <trkpt lat="43.21374" lon="5.46518">
        <ele>399</ele>
        <time>2012-08-08T07:01:08Z</time>
      </trkpt>
      <trkpt lat="43.21372" lon="5.46523">
        <ele>399</ele>
        <time>2012-08-08T07:01:18Z</time>
      </trkpt>
      <trkpt lat="43.21368" lon="5.46526">
        <ele>400</ele>
        <time>2012-08-08T07:01:31Z</time>
      </trkpt>
      <trkpt lat="43.21366" lon="5.46525">
        <ele>399</ele>
        <time>2012-08-08T07:01:34Z</time>
      </trkpt>
      <trkpt lat="43.21357" lon="5.46522">
        <ele>398</ele>
        <time>2012-08-08T07:01:46Z</time>
      </trkpt>
      <trkpt lat="43.21354" lon="5.46525">
        <ele>398</ele>
        <time>2012-08-08T07:01:49Z</time>
      </trkpt>
      <trkpt lat="43.2135" lon="5.46533">
        <ele>400</ele>
        <time>2012-08-08T07:01:55Z</time>
      </trkpt>
      <trkpt lat="43.21346" lon="5.46546">
        <ele>402</ele>
        <time>2012-08-08T07:02:08Z</time>
      </trkpt>
      <trkpt lat="43.21342" lon="5.46555">
        <ele>404</ele>
        <time>2012-08-08T07:02:22Z</time>
      </trkpt>
      <trkpt lat="43.21339" lon="5.46562">
        <ele>406</ele>
        <time>2012-08-08T07:02:35Z</time>
      </trkpt>
      <trkpt lat="43.2133" lon="5.46574">
        <ele>403</ele>
        <time>2012-08-08T07:02:49Z</time>
      </trkpt>
      <trkpt lat="43.21327" lon="5.46578">
        <ele>405</ele>
        <time>2012-08-08T07:02:53Z</time>
      </trkpt>
      <trkpt lat="43.21322" lon="5.46586">
        <ele>409</ele>
        <time>2012-08-08T07:03:03Z</time>
      </trkpt>
      <trkpt lat="43.21315" lon="5.46591">
        <ele>407</ele>
        <time>2012-08-08T07:03:13Z</time>
      </trkpt>
      <trkpt lat="43.21307" lon="5.46592">
        <ele>405</ele>
        <time>2012-08-08T07:03:20Z</time>
      </trkpt>
      <trkpt lat="43.21296" lon="5.46596">
        <ele>403</ele>
        <time>2012-08-08T07:03:33Z</time>
      </trkpt>
      <trkpt lat="43.21294" lon="5.46594">
        <ele>403</ele>
        <time>2012-08-08T07:03:45Z</time>
      </trkpt>
      <trkpt lat="43.21295" lon="5.4659">
        <ele>403</ele>
        <time>2012-08-08T07:04:00Z</time>
      </trkpt>
      <trkpt lat="43.21295" lon="5.46594">
        <ele>403</ele>
        <time>2012-08-08T07:04:17Z</time>
      </trkpt>
      <trkpt lat="43.21297" lon="5.46599">
        <ele>403</ele>
        <time>2012-08-08T07:04:54Z</time>
      </trkpt>
      <trkpt lat="43.21295" lon="5.46598">
        <ele>403</ele>
        <time>2012-08-08T07:05:19Z</time>
      </trkpt>
      <trkpt lat="43.21296" lon="5.46605">
        <ele>403</ele>
        <time>2012-08-08T07:05:30Z</time>
      </trkpt>
      <trkpt lat="43.21293" lon="5.46604">
        <ele>403</ele>
        <time>2012-08-08T07:05:42Z</time>
      </trkpt>
      <trkpt lat="43.21295" lon="5.46606">
        <ele>403</ele>
        <time>2012-08-08T07:06:15Z</time>
      </trkpt>
      <trkpt lat="43.21293" lon="5.46605">
        <ele>403</ele>
        <time>2012-08-08T07:06:49Z</time>
      </trkpt>
      <trkpt lat="43.21294" lon="5.46605">
        <ele>403</ele>
        <time>2012-08-08T07:07:19Z</time>
      </trkpt>
      <trkpt lat="43.21294" lon="5.46606">
        <ele>403</ele>
        <time>2012-08-08T07:07:46Z</time>
      </trkpt>
      <trkpt lat="43.21293" lon="5.46605">
        <ele>403</ele>
        <time>2012-08-08T07:08:20Z</time>
      </trkpt>
      <trkpt lat="43.21293" lon="5.46604">
        <ele>403</ele>
        <time>2012-08-08T07:08:49Z</time>
      </trkpt>
      <trkpt lat="43.21295" lon="5.46604">
        <ele>403</ele>
        <time>2012-08-08T07:09:12Z</time>
      </trkpt>
      <trkpt lat="43.21293" lon="5.46604">
        <ele>403</ele>
        <time>2012-08-08T07:09:39Z</time>
      </trkpt>
      <trkpt lat="43.21294" lon="5.46603">
        <ele>403</ele>
        <time>2012-08-08T07:10:08Z</time>
      </trkpt>
      <trkpt lat="43.21294" lon="5.46604">
        <ele>403</ele>
        <time>2012-08-08T07:10:43Z</time>
      </trkpt>
      <trkpt lat="43.21296" lon="5.46603">
        <ele>403</ele>
        <time>2012-08-08T07:11:12Z</time>
      </trkpt>
      <trkpt lat="43.21294" lon="5.46604">
        <ele>403</ele>
        <time>2012-08-08T07:11:35Z</time>
      </trkpt>
      <trkpt lat="43.21292" lon="5.46608">
        <ele>403</ele>
        <time>2012-08-08T07:12:00Z</time>
      </trkpt>
      <trkpt lat="43.21292" lon="5.46609">
        <ele>403</ele>
        <time>2012-08-08T07:12:29Z</time>
      </trkpt>
      <trkpt lat="43.21292" lon="5.46608">
        <ele>403</ele>
        <time>2012-08-08T07:12:57Z</time>
      </trkpt>
      <trkpt lat="43.21294" lon="5.46605">
        <ele>403</ele>
        <time>2012-08-08T07:13:26Z</time>
      </trkpt>
      <trkpt lat="43.21295" lon="5.46609">
        <ele>403</ele>
        <time>2012-08-08T07:13:58Z</time>
      </trkpt>
      <trkpt lat="43.21294" lon="5.46608">
        <ele>403</ele>
        <time>2012-08-08T07:14:27Z</time>
      </trkpt>
      <trkpt lat="43.21292" lon="5.46611">
        <ele>403</ele>
        <time>2012-08-08T07:14:57Z</time>
      </trkpt>
      <trkpt lat="43.21294" lon="5.46605">
        <ele>403</ele>
        <time>2012-08-08T07:15:27Z</time>
      </trkpt>
      <trkpt lat="43.21293" lon="5.46607">
        <ele>403</ele>
        <time>2012-08-08T07:15:57Z</time>
      </trkpt>
      <trkpt lat="43.21293" lon="5.46608">
        <ele>403</ele>
        <time>2012-08-08T07:16:25Z</time>
      </trkpt>
      <trkpt lat="43.21292" lon="5.46608">
        <ele>403</ele>
        <time>2012-08-08T07:16:50Z</time>
      </trkpt>
      <trkpt lat="43.21294" lon="5.46606">
        <ele>403</ele>
        <time>2012-08-08T07:17:14Z</time>
      </trkpt>
      <trkpt lat="43.21294" lon="5.46605">
        <ele>403</ele>
        <time>2012-08-08T07:17:40Z</time>
      </trkpt>
      <trkpt lat="43.21295" lon="5.46601">
        <ele>403</ele>
        <time>2012-08-08T07:18:16Z</time>
      </trkpt>
      <trkpt lat="43.21296" lon="5.46604">
        <ele>403</ele>
        <time>2012-08-08T07:18:50Z</time>
      </trkpt>
      <trkpt lat="43.21295" lon="5.46604">
        <ele>403</ele>
        <time>2012-08-08T07:19:20Z</time>
      </trkpt>
      <trkpt lat="43.21295" lon="5.46603">
        <ele>403</ele>
        <time>2012-08-08T07:19:57Z</time>
      </trkpt>
      <trkpt lat="43.21296" lon="5.46607">
        <ele>403</ele>
        <time>2012-08-08T07:20:25Z</time>
      </trkpt>
      <trkpt lat="43.21295" lon="5.46604">
        <ele>403</ele>
        <time>2012-08-08T07:20:59Z</time>
      </trkpt>
      <trkpt lat="43.21295" lon="5.46608">
        <ele>403</ele>
        <time>2012-08-08T07:21:28Z</time>
      </trkpt>
      <trkpt lat="43.21295" lon="5.46606">
        <ele>403</ele>
        <time>2012-08-08T07:22:03Z</time>
      </trkpt>
      <trkpt lat="43.21295" lon="5.46606">
        <ele>403</ele>
        <time>2012-08-08T07:22:38Z</time>
      </trkpt>
      <trkpt lat="43.21293" lon="5.466">
        <ele>402</ele>
        <time>2012-08-08T07:23:10Z</time>
      </trkpt>
      <trkpt lat="43.21294" lon="5.46602">
        <ele>403</ele>
        <time>2012-08-08T07:23:39Z</time>
      </trkpt>
      <trkpt lat="43.21296" lon="5.466">
        <ele>403</ele>
        <time>2012-08-08T07:23:42Z</time>
      </trkpt>
      <trkpt lat="43.2131" lon="5.46604">
        <ele>405</ele>
        <time>2012-08-08T07:23:56Z</time>
      </trkpt>
      <trkpt lat="43.21316" lon="5.46607">
        <ele>406</ele>
        <time>2012-08-08T07:24:05Z</time>
      </trkpt>
      <trkpt lat="43.21321" lon="5.46605">
        <ele>406</ele>
        <time>2012-08-08T07:24:09Z</time>
      </trkpt>
      <trkpt lat="43.21329" lon="5.46604">
        <ele>407</ele>
        <time>2012-08-08T07:24:16Z</time>
      </trkpt>
      <trkpt lat="43.21337" lon="5.46601">
        <ele>411</ele>
        <time>2012-08-08T07:24:24Z</time>
      </trkpt>
      <trkpt lat="43.21346" lon="5.46607">
        <ele>411</ele>
        <time>2012-08-08T07:24:34Z</time>
      </trkpt>
      <trkpt lat="43.21354" lon="5.46615">
        <ele>410</ele>
        <time>2012-08-08T07:24:46Z</time>
      </trkpt>
      <trkpt lat="43.21361" lon="5.46616">
        <ele>410</ele>
        <time>2012-08-08T07:24:56Z</time>
      </trkpt>
      <trkpt lat="43.21375" lon="5.46616">
        <ele>411</ele>
        <time>2012-08-08T07:25:09Z</time>
      </trkpt>
      <trkpt lat="43.21384" lon="5.46612">
        <ele>411</ele>
        <time>2012-08-08T07:25:19Z</time>
      </trkpt>
      <trkpt lat="43.21391" lon="5.46608">
        <ele>412</ele>
        <time>2012-08-08T07:25:27Z</time>
      </trkpt>
      <trkpt lat="43.21397" lon="5.46608">
        <ele>412</ele>
        <time>2012-08-08T07:25:32Z</time>
      </trkpt>
      <trkpt lat="43.21412" lon="5.46605">
        <ele>413</ele>
        <time>2012-08-08T07:25:45Z</time>
      </trkpt>
      <trkpt lat="43.21414" lon="5.46611">
        <ele>412</ele>
        <time>2012-08-08T07:25:57Z</time>
      </trkpt>
      <trkpt lat="43.21414" lon="5.46612">
        <ele>412</ele>
        <time>2012-08-08T07:25:58Z</time>
      </trkpt>
      <trkpt lat="43.21424" lon="5.46618">
        <ele>414</ele>
        <time>2012-08-08T07:26:12Z</time>
      </trkpt>
      <trkpt lat="43.21438" lon="5.46626">
        <ele>414</ele>
        <time>2012-08-08T07:26:28Z</time>
      </trkpt>
      <trkpt lat="43.21446" lon="5.46633">
        <ele>414</ele>
        <time>2012-08-08T07:26:40Z</time>
      </trkpt>
      <trkpt lat="43.21452" lon="5.46639">
        <ele>413</ele>
        <time>2012-08-08T07:26:52Z</time>
      </trkpt>
      <trkpt lat="43.21458" lon="5.46646">
        <ele>413</ele>
        <time>2012-08-08T07:27:05Z</time>
      </trkpt>
      <trkpt lat="43.21467" lon="5.46651">
        <ele>413</ele>
        <time>2012-08-08T07:27:19Z</time>
      </trkpt>
      <trkpt lat="43.21481" lon="5.46653">
        <ele>413</ele>
        <time>2012-08-08T07:27:32Z</time>
      </trkpt>
      <trkpt lat="43.21497" lon="5.46649">
        <ele>413</ele>
        <time>2012-08-08T07:27:48Z</time>
      </trkpt>
      <trkpt lat="43.21514" lon="5.46648">
        <ele>420</ele>
        <time>2012-08-08T07:28:04Z</time>
      </trkpt>
      <trkpt lat="43.21526" lon="5.46647">
        <ele>422</ele>
        <time>2012-08-08T07:28:20Z</time>
      </trkpt>
      <trkpt lat="43.21536" lon="5.46652">
        <ele>423</ele>
        <time>2012-08-08T07:28:34Z</time>
      </trkpt>
      <trkpt lat="43.21546" lon="5.46657">
        <ele>424</ele>
        <time>2012-08-08T07:28:48Z</time>
      </trkpt>
      <trkpt lat="43.21554" lon="5.46657">
        <ele>425</ele>
        <time>2012-08-08T07:29:02Z</time>
      </trkpt>
      <trkpt lat="43.21562" lon="5.4666">
        <ele>426</ele>
        <time>2012-08-08T07:29:17Z</time>
      </trkpt>
      <trkpt lat="43.21575" lon="5.46661">
        <ele>427</ele>
        <time>2012-08-08T07:29:33Z</time>
      </trkpt>
      <trkpt lat="43.21579" lon="5.46667">
        <ele>427</ele>
        <time>2012-08-08T07:29:47Z</time>
      </trkpt>
      <trkpt lat="43.21574" lon="5.4668">
        <ele>421</ele>
        <time>2012-08-08T07:30:00Z</time>
      </trkpt>
      <trkpt lat="43.21568" lon="5.46695">
        <ele>417</ele>
        <time>2012-08-08T07:30:15Z</time>
      </trkpt>
      <trkpt lat="43.21564" lon="5.46704">
        <ele>416</ele>
        <time>2012-08-08T07:30:24Z</time>
      </trkpt>
      <trkpt lat="43.21559" lon="5.46716">
        <ele>415</ele>
        <time>2012-08-08T07:30:36Z</time>
      </trkpt>
      <trkpt lat="43.21548" lon="5.46725">
        <ele>413</ele>
        <time>2012-08-08T07:30:51Z</time>
      </trkpt>
      <trkpt lat="43.21541" lon="5.46736">
        <ele>412</ele>
        <time>2012-08-08T07:31:05Z</time>
      </trkpt>
      <trkpt lat="43.21538" lon="5.46745">
        <ele>410</ele>
        <time>2012-08-08T07:31:18Z</time>
      </trkpt>
      <trkpt lat="43.21536" lon="5.46746">
        <ele>410</ele>
        <time>2012-08-08T07:31:23Z</time>
      </trkpt>
      <trkpt lat="43.21525" lon="5.46757">
        <ele>412</ele>
        <time>2012-08-08T07:31:37Z</time>
      </trkpt>
      <trkpt lat="43.21516" lon="5.46766">
        <ele>410</ele>
        <time>2012-08-08T07:31:50Z</time>
      </trkpt>
      <trkpt lat="43.21507" lon="5.46777">
        <ele>411</ele>
        <time>2012-08-08T07:32:06Z</time>
      </trkpt>
      <trkpt lat="43.21505" lon="5.46779">
        <ele>412</ele>
        <time>2012-08-08T07:32:09Z</time>
      </trkpt>
      <trkpt lat="43.21496" lon="5.46793">
        <ele>399</ele>
        <time>2012-08-08T07:32:24Z</time>
      </trkpt>
      <trkpt lat="43.21486" lon="5.468">
        <ele>400</ele>
        <time>2012-08-08T07:32:39Z</time>
      </trkpt>
      <trkpt lat="43.21482" lon="5.46802">
        <ele>400</ele>
        <time>2012-08-08T07:32:46Z</time>
      </trkpt>
      <trkpt lat="43.21471" lon="5.46807">
        <ele>399</ele>
        <time>2012-08-08T07:32:59Z</time>
      </trkpt>
      <trkpt lat="43.21466" lon="5.46812">
        <ele>399</ele>
        <time>2012-08-08T07:33:10Z</time>
      </trkpt>
      <trkpt lat="43.21462" lon="5.46814">
        <ele>398</ele>
        <time>2012-08-08T07:33:15Z</time>
      </trkpt>
      <trkpt lat="43.21453" lon="5.46822">
        <ele>397</ele>
        <time>2012-08-08T07:33:28Z</time>
      </trkpt>
      <trkpt lat="43.2145" lon="5.46826">
        <ele>397</ele>
        <time>2012-08-08T07:33:35Z</time>
      </trkpt>
      <trkpt lat="43.21447" lon="5.46829">
        <ele>396</ele>
        <time>2012-08-08T07:33:39Z</time>
      </trkpt>
      <trkpt lat="43.21443" lon="5.46834">
        <ele>404</ele>
        <time>2012-08-08T07:33:45Z</time>
      </trkpt>
      <trkpt lat="43.21428" lon="5.46845">
        <ele>401</ele>
        <time>2012-08-08T07:34:02Z</time>
      </trkpt>
      <trkpt lat="43.21417" lon="5.46862">
        <ele>404</ele>
        <time>2012-08-08T07:34:18Z</time>
      </trkpt>
      <trkpt lat="43.21414" lon="5.46868">
        <ele>391</ele>
        <time>2012-08-08T07:34:25Z</time>
      </trkpt>
      <trkpt lat="43.21405" lon="5.46876">
        <ele>391</ele>
        <time>2012-08-08T07:34:39Z</time>
      </trkpt>
      <trkpt lat="43.21399" lon="5.46882">
        <ele>392</ele>
        <time>2012-08-08T07:34:48Z</time>
      </trkpt>
      <trkpt lat="43.21395" lon="5.46891">
        <ele>393</ele>
        <time>2012-08-08T07:34:56Z</time>
      </trkpt>
      <trkpt lat="43.2139" lon="5.46909">
        <ele>394</ele>
        <time>2012-08-08T07:35:12Z</time>
      </trkpt>
      <trkpt lat="43.21389" lon="5.46912">
        <ele>394</ele>
        <time>2012-08-08T07:35:15Z</time>
      </trkpt>
      <trkpt lat="43.21384" lon="5.46915">
        <ele>394</ele>
        <time>2012-08-08T07:35:28Z</time>
      </trkpt>
      <trkpt lat="43.21381" lon="5.46918">
        <ele>408</ele>
        <time>2012-08-08T07:35:33Z</time>
      </trkpt>
      <trkpt lat="43.21381" lon="5.46925">
        <ele>408</ele>
        <time>2012-08-08T07:35:45Z</time>
      </trkpt>
      <trkpt lat="43.21379" lon="5.46934">
        <ele>409</ele>
        <time>2012-08-08T07:35:58Z</time>
      </trkpt>
      <trkpt lat="43.21374" lon="5.46941">
        <ele>409</ele>
        <time>2012-08-08T07:36:09Z</time>
      </trkpt>
      <trkpt lat="43.21371" lon="5.46943">
        <ele>410</ele>
        <time>2012-08-08T07:36:20Z</time>
      </trkpt>
      <trkpt lat="43.21368" lon="5.46949">
        <ele>410</ele>
        <time>2012-08-08T07:36:33Z</time>
      </trkpt>
      <trkpt lat="43.21368" lon="5.46951">
        <ele>410</ele>
        <time>2012-08-08T07:36:35Z</time>
      </trkpt>
      <trkpt lat="43.21365" lon="5.46952">
        <ele>410</ele>
        <time>2012-08-08T07:36:39Z</time>
      </trkpt>
      <trkpt lat="43.21361" lon="5.46958">
        <ele>411</ele>
        <time>2012-08-08T07:36:53Z</time>
      </trkpt>
      <trkpt lat="43.21358" lon="5.4696">
        <ele>411</ele>
        <time>2012-08-08T07:37:03Z</time>
      </trkpt>
      <trkpt lat="43.21354" lon="5.4696">
        <ele>411</ele>
        <time>2012-08-08T07:37:15Z</time>
      </trkpt>
      <trkpt lat="43.21353" lon="5.46967">
        <ele>413</ele>
        <time>2012-08-08T07:37:20Z</time>
      </trkpt>
      <trkpt lat="43.21346" lon="5.46984">
        <ele>416</ele>
        <time>2012-08-08T07:37:35Z</time>
      </trkpt>
      <trkpt lat="43.21345" lon="5.46992">
        <ele>418</ele>
        <time>2012-08-08T07:37:40Z</time>
      </trkpt>
      <trkpt lat="43.21342" lon="5.46999">
        <ele>419</ele>
        <time>2012-08-08T07:37:45Z</time>
      </trkpt>
      <trkpt lat="43.21332" lon="5.47013">
        <ele>406</ele>
        <time>2012-08-08T07:37:58Z</time>
      </trkpt>
      <trkpt lat="43.21334" lon="5.47022">
        <ele>419</ele>
        <time>2012-08-08T07:38:15Z</time>
      </trkpt>
      <trkpt lat="43.21334" lon="5.47024">
        <ele>419</ele>
        <time>2012-08-08T07:38:25Z</time>
      </trkpt>
      <trkpt lat="43.21334" lon="5.47025">
        <ele>419</ele>
        <time>2012-08-08T07:38:38Z</time>
      </trkpt>
      <trkpt lat="43.21336" lon="5.47025">
        <ele>419</ele>
        <time>2012-08-08T07:38:48Z</time>
      </trkpt>
      <trkpt lat="43.21337" lon="5.47025">
        <ele>419</ele>
        <time>2012-08-08T07:39:25Z</time>
      </trkpt>
      <trkpt lat="43.21335" lon="5.47025">
        <ele>419</ele>
        <time>2012-08-08T07:39:43Z</time>
      </trkpt>
      <trkpt lat="43.21335" lon="5.47036">
        <ele>417</ele>
        <time>2012-08-08T07:39:55Z</time>
      </trkpt>
      <trkpt lat="43.21335" lon="5.47039">
        <ele>417</ele>
        <time>2012-08-08T07:39:58Z</time>
      </trkpt>
      <trkpt lat="43.21341" lon="5.4705">
        <ele>415</ele>
        <time>2012-08-08T07:40:07Z</time>
      </trkpt>
      <trkpt lat="43.21337" lon="5.47062">
        <ele>411</ele>
        <time>2012-08-08T07:40:21Z</time>
      </trkpt>
      <trkpt lat="43.21336" lon="5.4707">
        <ele>408</ele>
        <time>2012-08-08T07:40:29Z</time>
      </trkpt>
      <trkpt lat="43.21336" lon="5.47072">
        <ele>406</ele>
        <time>2012-08-08T07:40:31Z</time>
      </trkpt>
      <trkpt lat="43.21335" lon="5.47083">
        <ele>400</ele>
        <time>2012-08-08T07:40:44Z</time>
      </trkpt>
      <trkpt lat="43.21336" lon="5.4709">
        <ele>400</ele>
        <time>2012-08-08T07:40:57Z</time>
      </trkpt>
      <trkpt lat="43.21337" lon="5.47093">
        <ele>400</ele>
        <time>2012-08-08T07:41:16Z</time>
      </trkpt>
      <trkpt lat="43.21336" lon="5.47096">
        <ele>401</ele>
        <time>2012-08-08T07:41:29Z</time>
      </trkpt>
      <trkpt lat="43.2134" lon="5.47112">
        <ele>401</ele>
        <time>2012-08-08T07:41:44Z</time>
      </trkpt>
      <trkpt lat="43.21339" lon="5.47128">
        <ele>398</ele>
        <time>2012-08-08T07:41:56Z</time>
      </trkpt>
      <trkpt lat="43.21331" lon="5.47139">
        <ele>365</ele>
        <time>2012-08-08T07:42:10Z</time>
      </trkpt>
      <trkpt lat="43.21331" lon="5.47138">
        <ele>365</ele>
        <time>2012-08-08T07:42:21Z</time>
      </trkpt>
      <trkpt lat="43.21331" lon="5.47143">
        <ele>365</ele>
        <time>2012-08-08T07:42:37Z</time>
      </trkpt>
      <trkpt lat="43.21332" lon="5.47148">
        <ele>365</ele>
        <time>2012-08-08T07:42:54Z</time>
      </trkpt>
      <trkpt lat="43.21334" lon="5.47142">
        <ele>392</ele>
        <time>2012-08-08T07:43:08Z</time>
      </trkpt>
      <trkpt lat="43.21344" lon="5.47143">
        <ele>393</ele>
        <time>2012-08-08T07:43:23Z</time>
      </trkpt>
      <trkpt lat="43.21347" lon="5.47146">
        <ele>393</ele>
        <time>2012-08-08T07:43:29Z</time>
      </trkpt>
      <trkpt lat="43.21353" lon="5.47152">
        <ele>393</ele>
        <time>2012-08-08T07:43:42Z</time>
      </trkpt>
      <trkpt lat="43.21356" lon="5.47159">
        <ele>393</ele>
        <time>2012-08-08T07:43:56Z</time>
      </trkpt>
      <trkpt lat="43.21362" lon="5.47165">
        <ele>397</ele>
        <time>2012-08-08T07:44:11Z</time>
      </trkpt>
      <trkpt lat="43.21363" lon="5.47168">
        <ele>393</ele>
        <time>2012-08-08T07:44:25Z</time>
      </trkpt>
      <trkpt lat="43.21367" lon="5.47164">
        <ele>400</ele>
        <time>2012-08-08T07:44:36Z</time>
      </trkpt>
      <trkpt lat="43.2137" lon="5.47165">
        <ele>402</ele>
        <time>2012-08-08T07:44:51Z</time>
      </trkpt>
      <trkpt lat="43.21371" lon="5.47165">
        <ele>402</ele>
        <time>2012-08-08T07:45:05Z</time>
      </trkpt>
      <trkpt lat="43.21374" lon="5.47161">
        <ele>404</ele>
        <time>2012-08-08T07:45:18Z</time>
      </trkpt>
      <trkpt lat="43.21373" lon="5.47158">
        <ele>404</ele>
        <time>2012-08-08T07:45:44Z</time>
      </trkpt>
      <trkpt lat="43.2138" lon="5.47153">
        <ele>407</ele>
        <time>2012-08-08T07:45:57Z</time>
      </trkpt>
      <trkpt lat="43.21382" lon="5.47157">
        <ele>408</ele>
        <time>2012-08-08T07:46:10Z</time>
      </trkpt>
      <trkpt lat="43.21385" lon="5.47161">
        <ele>410</ele>
        <time>2012-08-08T07:46:24Z</time>
      </trkpt>
      <trkpt lat="43.21388" lon="5.47166">
        <ele>411</ele>
        <time>2012-08-08T07:46:37Z</time>
      </trkpt>
      <trkpt lat="43.21385" lon="5.4717">
        <ele>405</ele>
        <time>2012-08-08T07:46:51Z</time>
      </trkpt>
      <trkpt lat="43.21383" lon="5.4717">
        <ele>404</ele>
        <time>2012-08-08T07:47:13Z</time>
      </trkpt>
      <trkpt lat="43.21388" lon="5.4718">
        <ele>406</ele>
        <time>2012-08-08T07:47:25Z</time>
      </trkpt>
      <trkpt lat="43.2139" lon="5.47182">
        <ele>406</ele>
        <time>2012-08-08T07:47:28Z</time>
      </trkpt>
      <trkpt lat="43.21392" lon="5.47186">
        <ele>407</ele>
        <time>2012-08-08T07:47:34Z</time>
      </trkpt>
      <trkpt lat="43.21394" lon="5.47193">
        <ele>407</ele>
        <time>2012-08-08T07:47:38Z</time>
      </trkpt>
      <trkpt lat="43.21395" lon="5.47196">
        <ele>406</ele>
        <time>2012-08-08T07:47:39Z</time>
      </trkpt>
      <trkpt lat="43.21395" lon="5.47199">
        <ele>406</ele>
        <time>2012-08-08T07:47:40Z</time>
      </trkpt>
      <trkpt lat="43.21396" lon="5.47202">
        <ele>406</ele>
        <time>2012-08-08T07:47:41Z</time>
      </trkpt>
      <trkpt lat="43.21397" lon="5.47205">
        <ele>406</ele>
        <time>2012-08-08T07:47:42Z</time>
      </trkpt>
      <trkpt lat="43.21399" lon="5.47214">
        <ele>407</ele>
        <time>2012-08-08T07:47:49Z</time>
      </trkpt>
      <trkpt lat="43.21402" lon="5.47221">
        <ele>408</ele>
        <time>2012-08-08T07:47:56Z</time>
      </trkpt>
      <trkpt lat="43.21404" lon="5.47232">
        <ele>410</ele>
        <time>2012-08-08T07:48:05Z</time>
      </trkpt>
      <trkpt lat="43.21405" lon="5.47243">
        <ele>413</ele>
        <time>2012-08-08T07:48:15Z</time>
      </trkpt>
      <trkpt lat="43.21406" lon="5.47254">
        <ele>412</ele>
        <time>2012-08-08T07:48:26Z</time>
      </trkpt>
      <trkpt lat="43.21402" lon="5.47257">
        <ele>408</ele>
        <time>2012-08-08T07:48:37Z</time>
      </trkpt>
      <trkpt lat="43.21403" lon="5.47257">
        <ele>409</ele>
        <time>2012-08-08T07:48:38Z</time>
      </trkpt>
      <trkpt lat="43.21405" lon="5.47256">
        <ele>410</ele>
        <time>2012-08-08T07:48:41Z</time>
      </trkpt>
      <trkpt lat="43.21411" lon="5.47263">
        <ele>410</ele>
        <time>2012-08-08T07:48:53Z</time>
      </trkpt>
      <trkpt lat="43.21413" lon="5.4727">
        <ele>407</ele>
        <time>2012-08-08T07:49:05Z</time>
      </trkpt>
      <trkpt lat="43.21414" lon="5.47279">
        <ele>403</ele>
        <time>2012-08-08T07:49:15Z</time>
      </trkpt>
      <trkpt lat="43.21414" lon="5.4728">
        <ele>403</ele>
        <time>2012-08-08T07:49:16Z</time>
      </trkpt>
      <trkpt lat="43.21417" lon="5.47286">
        <ele>409</ele>
        <time>2012-08-08T07:49:31Z</time>
      </trkpt>
      <trkpt lat="43.21415" lon="5.47286">
        <ele>401</ele>
        <time>2012-08-08T07:49:58Z</time>
      </trkpt>
      <trkpt lat="43.21412" lon="5.47281">
        <ele>402</ele>
        <time>2012-08-08T07:50:12Z</time>
      </trkpt>
      <trkpt lat="43.21415" lon="5.47279">
        <ele>403</ele>
        <time>2012-08-08T07:50:28Z</time>
      </trkpt>
      <trkpt lat="43.21413" lon="5.47279">
        <ele>403</ele>
        <time>2012-08-08T07:50:53Z</time>
      </trkpt>
      <trkpt lat="43.21414" lon="5.47279">
        <ele>403</ele>
        <time>2012-08-08T07:51:09Z</time>
      </trkpt>
      <trkpt lat="43.21414" lon="5.4728">
        <ele>403</ele>
        <time>2012-08-08T07:51:30Z</time>
      </trkpt>
      <trkpt lat="43.21413" lon="5.47281">
        <ele>402</ele>
        <time>2012-08-08T07:51:44Z</time>
      </trkpt>
      <trkpt lat="43.21411" lon="5.4728">
        <ele>403</ele>
        <time>2012-08-08T07:52:13Z</time>
      </trkpt>
      <trkpt lat="43.21414" lon="5.4728">
        <ele>403</ele>
        <time>2012-08-08T07:52:43Z</time>
      </trkpt>
      <trkpt lat="43.21415" lon="5.47281">
        <ele>403</ele>
        <time>2012-08-08T07:53:08Z</time>
      </trkpt>
      <trkpt lat="43.21413" lon="5.47279">
        <ele>403</ele>
        <time>2012-08-08T07:53:41Z</time>
      </trkpt>
      <trkpt lat="43.21412" lon="5.4728">
        <ele>403</ele>
        <time>2012-08-08T07:54:16Z</time>
      </trkpt>
      <trkpt lat="43.21415" lon="5.47281">
        <ele>403</ele>
        <time>2012-08-08T07:54:54Z</time>
      </trkpt>
      <trkpt lat="43.21414" lon="5.4728">
        <ele>403</ele>
        <time>2012-08-08T07:55:36Z</time>
      </trkpt>
      <trkpt lat="43.21416" lon="5.47276">
        <ele>404</ele>
        <time>2012-08-08T07:56:02Z</time>
      </trkpt>
      <trkpt lat="43.21417" lon="5.47277">
        <ele>411</ele>
        <time>2012-08-08T07:56:21Z</time>
      </trkpt>
      <trkpt lat="43.21415" lon="5.47275">
        <ele>405</ele>
        <time>2012-08-08T07:56:31Z</time>
      </trkpt>
      <trkpt lat="43.21414" lon="5.47275">
        <ele>405</ele>
        <time>2012-08-08T07:56:45Z</time>
      </trkpt>
      <trkpt lat="43.21412" lon="5.47272">
        <ele>406</ele>
        <time>2012-08-08T07:56:57Z</time>
      </trkpt>
      <trkpt lat="43.21413" lon="5.47271">
        <ele>406</ele>
        <time>2012-08-08T07:57:08Z</time>
      </trkpt>
      <trkpt lat="43.21411" lon="5.47269">
        <ele>407</ele>
        <time>2012-08-08T07:57:25Z</time>
      </trkpt>
      <trkpt lat="43.2141" lon="5.47262">
        <ele>410</ele>
        <time>2012-08-08T07:57:36Z</time>
      </trkpt>
      <trkpt lat="43.2141" lon="5.47263">
        <ele>410</ele>
        <time>2012-08-08T07:57:39Z</time>
      </trkpt>
      <trkpt lat="43.21407" lon="5.47266">
        <ele>407</ele>
        <time>2012-08-08T07:57:50Z</time>
      </trkpt>
      <trkpt lat="43.21402" lon="5.47266">
        <ele>406</ele>
        <time>2012-08-08T07:58:03Z</time>
      </trkpt>
      <trkpt lat="43.21402" lon="5.47259">
        <ele>408</ele>
        <time>2012-08-08T07:58:13Z</time>
      </trkpt>
      <trkpt lat="43.21404" lon="5.47252">
        <ele>411</ele>
        <time>2012-08-08T07:58:24Z</time>
      </trkpt>
      <trkpt lat="43.21403" lon="5.47247">
        <ele>412</ele>
        <time>2012-08-08T07:58:32Z</time>
      </trkpt>
      <trkpt lat="43.21402" lon="5.47246">
        <ele>412</ele>
        <time>2012-08-08T07:58:33Z</time>
      </trkpt>
      <trkpt lat="43.21403" lon="5.47235">
        <ele>410</ele>
        <time>2012-08-08T07:58:45Z</time>
      </trkpt>
      <trkpt lat="43.21403" lon="5.47231">
        <ele>409</ele>
        <time>2012-08-08T07:58:58Z</time>
      </trkpt>
      <trkpt lat="43.214" lon="5.47223">
        <ele>407</ele>
        <time>2012-08-08T07:59:11Z</time>
      </trkpt>
      <trkpt lat="43.21397" lon="5.47218">
        <ele>406</ele>
        <time>2012-08-08T07:59:17Z</time>
      </trkpt>
      <trkpt lat="43.21396" lon="5.47206">
        <ele>406</ele>
        <time>2012-08-08T07:59:30Z</time>
      </trkpt>
      <trkpt lat="43.21393" lon="5.47193">
        <ele>406</ele>
        <time>2012-08-08T07:59:44Z</time>
      </trkpt>
      <trkpt lat="43.21391" lon="5.47186">
        <ele>406</ele>
        <time>2012-08-08T07:59:51Z</time>
      </trkpt>
      <trkpt lat="43.21387" lon="5.47182">
        <ele>405</ele>
        <time>2012-08-08T07:59:57Z</time>
      </trkpt>
      <trkpt lat="43.21386" lon="5.47181">
        <ele>405</ele>
        <time>2012-08-08T07:59:58Z</time>
      </trkpt>
      <trkpt lat="43.21384" lon="5.47174">
        <ele>404</ele>
        <time>2012-08-08T08:00:03Z</time>
      </trkpt>
      <trkpt lat="43.21385" lon="5.47173">
        <ele>405</ele>
        <time>2012-08-08T08:00:04Z</time>
      </trkpt>
      <trkpt lat="43.21388" lon="5.47168">
        <ele>407</ele>
        <time>2012-08-08T08:00:17Z</time>
      </trkpt>
      <trkpt lat="43.21384" lon="5.47164">
        <ele>409</ele>
        <time>2012-08-08T08:00:31Z</time>
      </trkpt>
      <trkpt lat="43.21381" lon="5.4716">
        <ele>408</ele>
        <time>2012-08-08T08:00:44Z</time>
      </trkpt>
      <trkpt lat="43.21376" lon="5.47157">
        <ele>405</ele>
        <time>2012-08-08T08:00:57Z</time>
      </trkpt>
      <trkpt lat="43.21375" lon="5.4716">
        <ele>405</ele>
        <time>2012-08-08T08:01:08Z</time>
      </trkpt>
      <trkpt lat="43.21373" lon="5.47165">
        <ele>403</ele>
        <time>2012-08-08T08:01:21Z</time>
      </trkpt>
      <trkpt lat="43.21371" lon="5.47163">
        <ele>402</ele>
        <time>2012-08-08T08:01:35Z</time>
      </trkpt>
      <trkpt lat="43.21368" lon="5.47169">
        <ele>396</ele>
        <time>2012-08-08T08:01:47Z</time>
      </trkpt>
      <trkpt lat="43.21366" lon="5.47168">
        <ele>394</ele>
        <time>2012-08-08T08:02:01Z</time>
      </trkpt>
      <trkpt lat="43.21365" lon="5.47166">
        <ele>398</ele>
        <time>2012-08-08T08:02:15Z</time>
      </trkpt>
      <trkpt lat="43.21364" lon="5.47166">
        <ele>398</ele>
        <time>2012-08-08T08:02:29Z</time>
      </trkpt>
      <trkpt lat="43.21359" lon="5.47166">
        <ele>395</ele>
        <time>2012-08-08T08:02:41Z</time>
      </trkpt>
      <trkpt lat="43.21356" lon="5.47158">
        <ele>393</ele>
        <time>2012-08-08T08:02:55Z</time>
      </trkpt>
      <trkpt lat="43.21355" lon="5.47158">
        <ele>393</ele>
        <time>2012-08-08T08:02:57Z</time>
      </trkpt>
      <trkpt lat="43.21351" lon="5.47155">
        <ele>391</ele>
        <time>2012-08-08T08:03:07Z</time>
      </trkpt>
      <trkpt lat="43.21346" lon="5.47149">
        <ele>391</ele>
        <time>2012-08-08T08:03:21Z</time>
      </trkpt>
      <trkpt lat="43.21347" lon="5.47142">
        <ele>395</ele>
        <time>2012-08-08T08:03:34Z</time>
      </trkpt>
      <trkpt lat="43.21347" lon="5.47136">
        <ele>397</ele>
        <time>2012-08-08T08:03:41Z</time>
      </trkpt>
      <trkpt lat="43.21348" lon="5.47135">
        <ele>398</ele>
        <time>2012-08-08T08:03:42Z</time>
      </trkpt>
      <trkpt lat="43.21344" lon="5.47126">
        <ele>399</ele>
        <time>2012-08-08T08:03:55Z</time>
      </trkpt>
      <trkpt lat="43.21341" lon="5.4712">
        <ele>400</ele>
        <time>2012-08-08T08:04:04Z</time>
      </trkpt>
      <trkpt lat="43.21341" lon="5.47119">
        <ele>400</ele>
        <time>2012-08-08T08:04:05Z</time>
      </trkpt>
      <trkpt lat="43.2134" lon="5.47118">
        <ele>400</ele>
        <time>2012-08-08T08:04:06Z</time>
      </trkpt>
      <trkpt lat="43.2134" lon="5.47114">
        <ele>401</ele>
        <time>2012-08-08T08:04:09Z</time>
      </trkpt>
      <trkpt lat="43.21339" lon="5.47113">
        <ele>401</ele>
        <time>2012-08-08T08:04:10Z</time>
      </trkpt>
      <trkpt lat="43.21335" lon="5.471">
        <ele>401</ele>
        <time>2012-08-08T08:04:22Z</time>
      </trkpt>
      <trkpt lat="43.21331" lon="5.47085">
        <ele>393</ele>
        <time>2012-08-08T08:04:34Z</time>
      </trkpt>
      <trkpt lat="43.21332" lon="5.47082">
        <ele>397</ele>
        <time>2012-08-08T08:04:37Z</time>
      </trkpt>
      <trkpt lat="43.21332" lon="5.4708">
        <ele>396</ele>
        <time>2012-08-08T08:04:38Z</time>
      </trkpt>
      <trkpt lat="43.21332" lon="5.47079">
        <ele>395</ele>
        <time>2012-08-08T08:04:39Z</time>
      </trkpt>
      <trkpt lat="43.21332" lon="5.47077">
        <ele>394</ele>
        <time>2012-08-08T08:04:40Z</time>
      </trkpt>
      <trkpt lat="43.21332" lon="5.47075">
        <ele>394</ele>
        <time>2012-08-08T08:04:41Z</time>
      </trkpt>
      <trkpt lat="43.21339" lon="5.47059">
        <ele>412</ele>
        <time>2012-08-08T08:04:51Z</time>
      </trkpt>
      <trkpt lat="43.21338" lon="5.47057">
        <ele>413</ele>
        <time>2012-08-08T08:04:52Z</time>
      </trkpt>
      <trkpt lat="43.21338" lon="5.47056">
        <ele>413</ele>
        <time>2012-08-08T08:04:53Z</time>
      </trkpt>
      <trkpt lat="43.21337" lon="5.47054">
        <ele>413</ele>
        <time>2012-08-08T08:04:54Z</time>
      </trkpt>
      <trkpt lat="43.21337" lon="5.47052">
        <ele>414</ele>
        <time>2012-08-08T08:04:55Z</time>
      </trkpt>
      <trkpt lat="43.21335" lon="5.47044">
        <ele>416</ele>
        <time>2012-08-08T08:05:00Z</time>
      </trkpt>
      <trkpt lat="43.21335" lon="5.47042">
        <ele>416</ele>
        <time>2012-08-08T08:05:01Z</time>
      </trkpt>
      <trkpt lat="43.21335" lon="5.47041">
        <ele>416</ele>
        <time>2012-08-08T08:05:02Z</time>
      </trkpt>
      <trkpt lat="43.21336" lon="5.47039">
        <ele>417</ele>
        <time>2012-08-08T08:05:03Z</time>
      </trkpt>
      <trkpt lat="43.21336" lon="5.47032">
        <ele>418</ele>
        <time>2012-08-08T08:05:09Z</time>
      </trkpt>
      <trkpt lat="43.21335" lon="5.47027">
        <ele>419</ele>
        <time>2012-08-08T08:05:13Z</time>
      </trkpt>
      <trkpt lat="43.21335" lon="5.47025">
        <ele>419</ele>
        <time>2012-08-08T08:05:14Z</time>
      </trkpt>
      <trkpt lat="43.21334" lon="5.47019">
        <ele>420</ele>
        <time>2012-08-08T08:05:19Z</time>
      </trkpt>
      <trkpt lat="43.21335" lon="5.47017">
        <ele>420</ele>
        <time>2012-08-08T08:05:20Z</time>
      </trkpt>
      <trkpt lat="43.21335" lon="5.47016">
        <ele>420</ele>
        <time>2012-08-08T08:05:21Z</time>
      </trkpt>
      <trkpt lat="43.21336" lon="5.47015">
        <ele>420</ele>
        <time>2012-08-08T08:05:22Z</time>
      </trkpt>
      <trkpt lat="43.21337" lon="5.47014">
        <ele>420</ele>
        <time>2012-08-08T08:05:23Z</time>
      </trkpt>
      <trkpt lat="43.21338" lon="5.47013">
        <ele>420</ele>
        <time>2012-08-08T08:05:24Z</time>
      </trkpt>
      <trkpt lat="43.21339" lon="5.47012">
        <ele>420</ele>
        <time>2012-08-08T08:05:25Z</time>
      </trkpt>
      <trkpt lat="43.2134" lon="5.47011">
        <ele>420</ele>
        <time>2012-08-08T08:05:26Z</time>
      </trkpt>
      <trkpt lat="43.21341" lon="5.4701">
        <ele>421</ele>
        <time>2012-08-08T08:05:27Z</time>
      </trkpt>
      <trkpt lat="43.21342" lon="5.47009">
        <ele>421</ele>
        <time>2012-08-08T08:05:28Z</time>
      </trkpt>
      <trkpt lat="43.21344" lon="5.47006">
        <ele>421</ele>
        <time>2012-08-08T08:05:31Z</time>
      </trkpt>
      <trkpt lat="43.21345" lon="5.47005">
        <ele>421</ele>
        <time>2012-08-08T08:05:32Z</time>
      </trkpt>
      <trkpt lat="43.21349" lon="5.46988">
        <ele>417</ele>
        <time>2012-08-08T08:05:46Z</time>
      </trkpt>
      <trkpt lat="43.21351" lon="5.4698">
        <ele>415</ele>
        <time>2012-08-08T08:05:52Z</time>
      </trkpt>
      <trkpt lat="43.21355" lon="5.46963">
        <ele>412</ele>
        <time>2012-08-08T08:06:04Z</time>
      </trkpt>
      <trkpt lat="43.21362" lon="5.46954">
        <ele>411</ele>
        <time>2012-08-08T08:06:15Z</time>
      </trkpt>
      <trkpt lat="43.21367" lon="5.46949">
        <ele>410</ele>
        <time>2012-08-08T08:06:26Z</time>
      </trkpt>
      <trkpt lat="43.21371" lon="5.46942">
        <ele>409</ele>
        <time>2012-08-08T08:06:37Z</time>
      </trkpt>
      <trkpt lat="43.21377" lon="5.4694">
        <ele>410</ele>
        <time>2012-08-08T08:06:48Z</time>
      </trkpt>
      <trkpt lat="43.21378" lon="5.46937">
        <ele>409</ele>
        <time>2012-08-08T08:06:53Z</time>
      </trkpt>
      <trkpt lat="43.2138" lon="5.46926">
        <ele>408</ele>
        <time>2012-08-08T08:07:03Z</time>
      </trkpt>
      <trkpt lat="43.2138" lon="5.46925">
        <ele>408</ele>
        <time>2012-08-08T08:07:05Z</time>
      </trkpt>
      <trkpt lat="43.21387" lon="5.46915">
        <ele>394</ele>
        <time>2012-08-08T08:07:19Z</time>
      </trkpt>
      <trkpt lat="43.21386" lon="5.46912">
        <ele>394</ele>
        <time>2012-08-08T08:07:25Z</time>
      </trkpt>
      <trkpt lat="43.2139" lon="5.46907">
        <ele>394</ele>
        <time>2012-08-08T08:07:35Z</time>
      </trkpt>
      <trkpt lat="43.21391" lon="5.46905">
        <ele>394</ele>
        <time>2012-08-08T08:07:38Z</time>
      </trkpt>
      <trkpt lat="43.21394" lon="5.46895">
        <ele>393</ele>
        <time>2012-08-08T08:07:48Z</time>
      </trkpt>
      <trkpt lat="43.21394" lon="5.46893">
        <ele>393</ele>
        <time>2012-08-08T08:07:51Z</time>
      </trkpt>
      <trkpt lat="43.21394" lon="5.46888">
        <ele>392</ele>
        <time>2012-08-08T08:07:55Z</time>
      </trkpt>
      <trkpt lat="43.21394" lon="5.46887">
        <ele>392</ele>
        <time>2012-08-08T08:07:56Z</time>
      </trkpt>
      <trkpt lat="43.21395" lon="5.4688">
        <ele>391</ele>
        <time>2012-08-08T08:08:01Z</time>
      </trkpt>
      <trkpt lat="43.21401" lon="5.46872">
        <ele>390</ele>
        <time>2012-08-08T08:08:09Z</time>
      </trkpt>
      <trkpt lat="43.21407" lon="5.46869">
        <ele>391</ele>
        <time>2012-08-08T08:08:17Z</time>
      </trkpt>
      <trkpt lat="43.21413" lon="5.4686">
        <ele>390</ele>
        <time>2012-08-08T08:08:27Z</time>
      </trkpt>
      <trkpt lat="43.21423" lon="5.46847">
        <ele>400</ele>
        <time>2012-08-08T08:08:39Z</time>
      </trkpt>
      <trkpt lat="43.21432" lon="5.46839">
        <ele>401</ele>
        <time>2012-08-08T08:08:47Z</time>
      </trkpt>
      <trkpt lat="43.21433" lon="5.46839">
        <ele>401</ele>
        <time>2012-08-08T08:08:48Z</time>
      </trkpt>
      <trkpt lat="43.21434" lon="5.46838">
        <ele>401</ele>
        <time>2012-08-08T08:08:49Z</time>
      </trkpt>
      <trkpt lat="43.21435" lon="5.46837">
        <ele>402</ele>
        <time>2012-08-08T08:08:50Z</time>
      </trkpt>
      <trkpt lat="43.21436" lon="5.46836">
        <ele>402</ele>
        <time>2012-08-08T08:08:51Z</time>
      </trkpt>
      <trkpt lat="43.21437" lon="5.46836">
        <ele>402</ele>
        <time>2012-08-08T08:08:52Z</time>
      </trkpt>
      <trkpt lat="43.21438" lon="5.46834">
        <ele>403</ele>
        <time>2012-08-08T08:08:53Z</time>
      </trkpt>
      <trkpt lat="43.21439" lon="5.46833">
        <ele>403</ele>
        <time>2012-08-08T08:08:54Z</time>
      </trkpt>
      <trkpt lat="43.21441" lon="5.46832">
        <ele>395</ele>
        <time>2012-08-08T08:08:58Z</time>
      </trkpt>
      <trkpt lat="43.21441" lon="5.46831">
        <ele>395</ele>
        <time>2012-08-08T08:08:59Z</time>
      </trkpt>
      <trkpt lat="43.21442" lon="5.4683">
        <ele>395</ele>
        <time>2012-08-08T08:09:00Z</time>
      </trkpt>
      <trkpt lat="43.21442" lon="5.46829">
        <ele>395</ele>
        <time>2012-08-08T08:09:01Z</time>
      </trkpt>
      <trkpt lat="43.21443" lon="5.46828">
        <ele>395</ele>
        <time>2012-08-08T08:09:02Z</time>
      </trkpt>
      <trkpt lat="43.21444" lon="5.46826">
        <ele>396</ele>
        <time>2012-08-08T08:09:03Z</time>
      </trkpt>
      <trkpt lat="43.21445" lon="5.46825">
        <ele>396</ele>
        <time>2012-08-08T08:09:04Z</time>
      </trkpt>
      <trkpt lat="43.21446" lon="5.46825">
        <ele>396</ele>
        <time>2012-08-08T08:09:05Z</time>
      </trkpt>
      <trkpt lat="43.21447" lon="5.46824">
        <ele>396</ele>
        <time>2012-08-08T08:09:06Z</time>
      </trkpt>
      <trkpt lat="43.21448" lon="5.46822">
        <ele>396</ele>
        <time>2012-08-08T08:09:07Z</time>
      </trkpt>
      <trkpt lat="43.21449" lon="5.46815">
        <ele>396</ele>
        <time>2012-08-08T08:09:17Z</time>
      </trkpt>
      <trkpt lat="43.21449" lon="5.46814">
        <ele>396</ele>
        <time>2012-08-08T08:09:18Z</time>
      </trkpt>
      <trkpt lat="43.21458" lon="5.46802">
        <ele>397</ele>
        <time>2012-08-08T08:09:27Z</time>
      </trkpt>
      <trkpt lat="43.21459" lon="5.468">
        <ele>397</ele>
        <time>2012-08-08T08:09:28Z</time>
      </trkpt>
      <trkpt lat="43.2146" lon="5.46799">
        <ele>397</ele>
        <time>2012-08-08T08:09:29Z</time>
      </trkpt>
      <trkpt lat="43.21461" lon="5.46798">
        <ele>397</ele>
        <time>2012-08-08T08:09:30Z</time>
      </trkpt>
      <trkpt lat="43.21462" lon="5.46797">
        <ele>397</ele>
        <time>2012-08-08T08:09:31Z</time>
      </trkpt>
      <trkpt lat="43.21464" lon="5.46796">
        <ele>397</ele>
        <time>2012-08-08T08:09:32Z</time>
      </trkpt>
      <trkpt lat="43.21465" lon="5.46796">
        <ele>397</ele>
        <time>2012-08-08T08:09:33Z</time>
      </trkpt>
      <trkpt lat="43.21473" lon="5.46794">
        <ele>398</ele>
        <time>2012-08-08T08:09:39Z</time>
      </trkpt>
      <trkpt lat="43.21475" lon="5.46795">
        <ele>398</ele>
        <time>2012-08-08T08:09:40Z</time>
      </trkpt>
      <trkpt lat="43.21476" lon="5.46795">
        <ele>398</ele>
        <time>2012-08-08T08:09:41Z</time>
      </trkpt>
      <trkpt lat="43.21481" lon="5.46792">
        <ele>398</ele>
        <time>2012-08-08T08:09:48Z</time>
      </trkpt>
      <trkpt lat="43.21482" lon="5.46791">
        <ele>398</ele>
        <time>2012-08-08T08:09:49Z</time>
      </trkpt>
      <trkpt lat="43.21483" lon="5.46791">
        <ele>398</ele>
        <time>2012-08-08T08:09:50Z</time>
      </trkpt>
      <trkpt lat="43.21484" lon="5.46791">
        <ele>398</ele>
        <time>2012-08-08T08:09:51Z</time>
      </trkpt>
      <trkpt lat="43.21486" lon="5.46791">
        <ele>398</ele>
        <time>2012-08-08T08:09:52Z</time>
      </trkpt>
      <trkpt lat="43.21487" lon="5.4679">
        <ele>398</ele>
        <time>2012-08-08T08:09:53Z</time>
      </trkpt>
      <trkpt lat="43.21488" lon="5.4679">
        <ele>398</ele>
        <time>2012-08-08T08:09:54Z</time>
      </trkpt>
      <trkpt lat="43.21489" lon="5.46789">
        <ele>398</ele>
        <time>2012-08-08T08:09:55Z</time>
      </trkpt>
      <trkpt lat="43.21497" lon="5.46779">
        <ele>397</ele>
        <time>2012-08-08T08:10:05Z</time>
      </trkpt>
      <trkpt lat="43.21498" lon="5.46776">
        <ele>397</ele>
        <time>2012-08-08T08:10:07Z</time>
      </trkpt>
      <trkpt lat="43.21505" lon="5.46772">
        <ele>410</ele>
        <time>2012-08-08T08:10:14Z</time>
      </trkpt>
      <trkpt lat="43.21506" lon="5.46771">
        <ele>409</ele>
        <time>2012-08-08T08:10:15Z</time>
      </trkpt>
      <trkpt lat="43.2152" lon="5.46758">
        <ele>410</ele>
        <time>2012-08-08T08:10:29Z</time>
      </trkpt>
      <trkpt lat="43.21528" lon="5.46751">
        <ele>412</ele>
        <time>2012-08-08T08:10:37Z</time>
      </trkpt>
      <trkpt lat="43.21533" lon="5.46745">
        <ele>409</ele>
        <time>2012-08-08T08:10:44Z</time>
      </trkpt>
      <trkpt lat="43.21534" lon="5.46744">
        <ele>409</ele>
        <time>2012-08-08T08:10:45Z</time>
      </trkpt>
      <trkpt lat="43.21547" lon="5.46732">
        <ele>413</ele>
        <time>2012-08-08T08:10:59Z</time>
      </trkpt>
      <trkpt lat="43.21561" lon="5.46718">
        <ele>415</ele>
        <time>2012-08-08T08:11:13Z</time>
      </trkpt>
      <trkpt lat="43.21561" lon="5.46717">
        <ele>415</ele>
        <time>2012-08-08T08:11:14Z</time>
      </trkpt>
      <trkpt lat="43.21566" lon="5.46705">
        <ele>416</ele>
        <time>2012-08-08T08:11:27Z</time>
      </trkpt>
      <trkpt lat="43.21571" lon="5.46696">
        <ele>418</ele>
        <time>2012-08-08T08:11:37Z</time>
      </trkpt>
      <trkpt lat="43.21578" lon="5.4669">
        <ele>419</ele>
        <time>2012-08-08T08:11:45Z</time>
      </trkpt>
      <trkpt lat="43.21581" lon="5.46681">
        <ele>421</ele>
        <time>2012-08-08T08:11:54Z</time>
      </trkpt>
      <trkpt lat="43.21578" lon="5.46676">
        <ele>422</ele>
        <time>2012-08-08T08:12:00Z</time>
      </trkpt>
      <trkpt lat="43.21578" lon="5.46676">
        <ele>422</ele>
        <time>2012-08-08T08:12:01Z</time>
      </trkpt>
      <trkpt lat="43.21566" lon="5.4667">
        <ele>420</ele>
        <time>2012-08-08T08:12:15Z</time>
      </trkpt>
      <trkpt lat="43.21558" lon="5.46666">
        <ele>425</ele>
        <time>2012-08-08T08:12:24Z</time>
      </trkpt>
      <trkpt lat="43.21557" lon="5.46665">
        <ele>425</ele>
        <time>2012-08-08T08:12:25Z</time>
      </trkpt>
      <trkpt lat="43.21557" lon="5.46664">
        <ele>425</ele>
        <time>2012-08-08T08:12:26Z</time>
      </trkpt>
      <trkpt lat="43.21553" lon="5.46663">
        <ele>425</ele>
        <time>2012-08-08T08:12:30Z</time>
      </trkpt>
      <trkpt lat="43.21547" lon="5.46661">
        <ele>424</ele>
        <time>2012-08-08T08:12:39Z</time>
      </trkpt>
      <trkpt lat="43.21544" lon="5.4666">
        <ele>424</ele>
        <time>2012-08-08T08:12:42Z</time>
      </trkpt>
      <trkpt lat="43.21543" lon="5.46659">
        <ele>423</ele>
        <time>2012-08-08T08:12:43Z</time>
      </trkpt>
      <trkpt lat="43.21531" lon="5.46652">
        <ele>422</ele>
        <time>2012-08-08T08:12:57Z</time>
      </trkpt>
      <trkpt lat="43.2152" lon="5.46649">
        <ele>420</ele>
        <time>2012-08-08T08:13:09Z</time>
      </trkpt>
      <trkpt lat="43.21515" lon="5.46649">
        <ele>419</ele>
        <time>2012-08-08T08:13:13Z</time>
      </trkpt>
      <trkpt lat="43.21495" lon="5.46653">
        <ele>412</ele>
        <time>2012-08-08T08:13:29Z</time>
      </trkpt>
      <trkpt lat="43.21493" lon="5.46653">
        <ele>412</ele>
        <time>2012-08-08T08:13:31Z</time>
      </trkpt>
      <trkpt lat="43.21492" lon="5.46654">
        <ele>412</ele>
        <time>2012-08-08T08:13:32Z</time>
      </trkpt>
      <trkpt lat="43.2149" lon="5.46654">
        <ele>412</ele>
        <time>2012-08-08T08:13:33Z</time>
      </trkpt>
      <trkpt lat="43.21489" lon="5.46654">
        <ele>412</ele>
        <time>2012-08-08T08:13:34Z</time>
      </trkpt>
      <trkpt lat="43.21488" lon="5.46655">
        <ele>412</ele>
        <time>2012-08-08T08:13:35Z</time>
      </trkpt>
      <trkpt lat="43.21487" lon="5.46654">
        <ele>412</ele>
        <time>2012-08-08T08:13:36Z</time>
      </trkpt>
      <trkpt lat="43.21485" lon="5.46654">
        <ele>412</ele>
        <time>2012-08-08T08:13:37Z</time>
      </trkpt>
      <trkpt lat="43.21484" lon="5.46654">
        <ele>413</ele>
        <time>2012-08-08T08:13:38Z</time>
      </trkpt>
      <trkpt lat="43.21462" lon="5.46649">
        <ele>413</ele>
        <time>2012-08-08T08:13:54Z</time>
      </trkpt>
      <trkpt lat="43.21462" lon="5.46648">
        <ele>413</ele>
        <time>2012-08-08T08:13:55Z</time>
      </trkpt>
      <trkpt lat="43.21461" lon="5.46648">
        <ele>413</ele>
        <time>2012-08-08T08:13:56Z</time>
      </trkpt>
      <trkpt lat="43.2146" lon="5.46647">
        <ele>413</ele>
        <time>2012-08-08T08:13:57Z</time>
      </trkpt>
      <trkpt lat="43.21453" lon="5.46639">
        <ele>413</ele>
        <time>2012-08-08T08:14:06Z</time>
      </trkpt>
      <trkpt lat="43.21452" lon="5.46638">
        <ele>413</ele>
        <time>2012-08-08T08:14:07Z</time>
      </trkpt>
      <trkpt lat="43.21441" lon="5.46628">
        <ele>414</ele>
        <time>2012-08-08T08:14:21Z</time>
      </trkpt>
      <trkpt lat="43.21432" lon="5.46623">
        <ele>414</ele>
        <time>2012-08-08T08:14:32Z</time>
      </trkpt>
      <trkpt lat="43.21425" lon="5.46621">
        <ele>414</ele>
        <time>2012-08-08T08:14:39Z</time>
      </trkpt>
      <trkpt lat="43.21414" lon="5.46613">
        <ele>412</ele>
        <time>2012-08-08T08:14:53Z</time>
      </trkpt>
      <trkpt lat="43.21414" lon="5.46612">
        <ele>412</ele>
        <time>2012-08-08T08:14:54Z</time>
      </trkpt>
      <trkpt lat="43.21411" lon="5.46608">
        <ele>412</ele>
        <time>2012-08-08T08:15:04Z</time>
      </trkpt>
      <trkpt lat="43.2141" lon="5.46608">
        <ele>412</ele>
        <time>2012-08-08T08:15:06Z</time>
      </trkpt>
      <trkpt lat="43.21408" lon="5.46608">
        <ele>412</ele>
        <time>2012-08-08T08:15:07Z</time>
      </trkpt>
      <trkpt lat="43.21407" lon="5.46609">
        <ele>412</ele>
        <time>2012-08-08T08:15:08Z</time>
      </trkpt>
      <trkpt lat="43.21406" lon="5.46609">
        <ele>412</ele>
        <time>2012-08-08T08:15:09Z</time>
      </trkpt>
      <trkpt lat="43.21405" lon="5.46608">
        <ele>412</ele>
        <time>2012-08-08T08:15:10Z</time>
      </trkpt>
      <trkpt lat="43.21403" lon="5.46608">
        <ele>412</ele>
        <time>2012-08-08T08:15:13Z</time>
      </trkpt>
      <trkpt lat="43.21387" lon="5.46615">
        <ele>411</ele>
        <time>2012-08-08T08:15:28Z</time>
      </trkpt>
      <trkpt lat="43.21374" lon="5.46621">
        <ele>410</ele>
        <time>2012-08-08T08:15:38Z</time>
      </trkpt>
      <trkpt lat="43.21373" lon="5.4662">
        <ele>410</ele>
        <time>2012-08-08T08:15:39Z</time>
      </trkpt>
      <trkpt lat="43.21371" lon="5.46619">
        <ele>410</ele>
        <time>2012-08-08T08:15:40Z</time>
      </trkpt>
      <trkpt lat="43.2137" lon="5.46618">
        <ele>410</ele>
        <time>2012-08-08T08:15:41Z</time>
      </trkpt>
      <trkpt lat="43.21368" lon="5.46618">
        <ele>410</ele>
        <time>2012-08-08T08:15:42Z</time>
      </trkpt>
      <trkpt lat="43.21367" lon="5.46618">
        <ele>410</ele>
        <time>2012-08-08T08:15:43Z</time>
      </trkpt>
      <trkpt lat="43.21365" lon="5.46618">
        <ele>410</ele>
        <time>2012-08-08T08:15:44Z</time>
      </trkpt>
      <trkpt lat="43.21354" lon="5.46615">
        <ele>410</ele>
        <time>2012-08-08T08:15:52Z</time>
      </trkpt>
      <trkpt lat="43.21354" lon="5.46612">
        <ele>410</ele>
        <time>2012-08-08T08:15:54Z</time>
      </trkpt>
      <trkpt lat="43.21337" lon="5.46603">
        <ele>411</ele>
        <time>2012-08-08T08:16:09Z</time>
      </trkpt>
      <trkpt lat="43.2133" lon="5.46602">
        <ele>407</ele>
        <time>2012-08-08T08:16:22Z</time>
      </trkpt>
      <trkpt lat="43.21329" lon="5.46601">
        <ele>408</ele>
        <time>2012-08-08T08:16:41Z</time>
      </trkpt>
      <trkpt lat="43.21327" lon="5.46602">
        <ele>407</ele>
        <time>2012-08-08T08:17:05Z</time>
      </trkpt>
      <trkpt lat="43.21325" lon="5.46602">
        <ele>407</ele>
        <time>2012-08-08T08:17:22Z</time>
      </trkpt>
      <trkpt lat="43.21326" lon="5.46599">
        <ele>408</ele>
        <time>2012-08-08T08:17:35Z</time>
      </trkpt>
      <trkpt lat="43.21326" lon="5.46598">
        <ele>408</ele>
        <time>2012-08-08T08:17:36Z</time>
      </trkpt>
      <trkpt lat="43.21333" lon="5.46587">
        <ele>412</ele>
        <time>2012-08-08T08:17:51Z</time>
      </trkpt>
      <trkpt lat="43.21334" lon="5.4658">
        <ele>412</ele>
        <time>2012-08-08T08:18:04Z</time>
      </trkpt>
      <trkpt lat="43.21336" lon="5.46579">
        <ele>411</ele>
        <time>2012-08-08T08:18:06Z</time>
      </trkpt>
      <trkpt lat="43.21336" lon="5.46575">
        <ele>410</ele>
        <time>2012-08-08T08:18:20Z</time>
      </trkpt>
      <trkpt lat="43.21335" lon="5.46575">
        <ele>410</ele>
        <time>2012-08-08T08:18:21Z</time>
      </trkpt>
      <trkpt lat="43.2134" lon="5.46561">
        <ele>406</ele>
        <time>2012-08-08T08:18:33Z</time>
      </trkpt>
      <trkpt lat="43.21342" lon="5.46552">
        <ele>404</ele>
        <time>2012-08-08T08:18:42Z</time>
      </trkpt>
      <trkpt lat="43.21344" lon="5.4654">
        <ele>401</ele>
        <time>2012-08-08T08:18:52Z</time>
      </trkpt>
      <trkpt lat="43.21348" lon="5.46533">
        <ele>400</ele>
        <time>2012-08-08T08:18:57Z</time>
      </trkpt>
      <trkpt lat="43.21351" lon="5.46528">
        <ele>399</ele>
        <time>2012-08-08T08:19:00Z</time>
      </trkpt>
      <trkpt lat="43.21357" lon="5.46524">
        <ele>398</ele>
        <time>2012-08-08T08:19:04Z</time>
      </trkpt>
      <trkpt lat="43.21359" lon="5.46523">
        <ele>398</ele>
        <time>2012-08-08T08:19:06Z</time>
      </trkpt>
      <trkpt lat="43.21368" lon="5.46527">
        <ele>400</ele>
        <time>2012-08-08T08:19:18Z</time>
      </trkpt>
      <trkpt lat="43.21372" lon="5.46525">
        <ele>400</ele>
        <time>2012-08-08T08:19:28Z</time>
      </trkpt>
      <trkpt lat="43.21376" lon="5.46522">
        <ele>399</ele>
        <time>2012-08-08T08:19:40Z</time>
      </trkpt>
      <trkpt lat="43.21373" lon="5.46515">
        <ele>398</ele>
        <time>2012-08-08T08:19:51Z</time>
      </trkpt>
      <trkpt lat="43.21375" lon="5.46515">
        <ele>399</ele>
        <time>2012-08-08T08:19:54Z</time>
      </trkpt>
      <trkpt lat="43.21379" lon="5.46512">
        <ele>398</ele>
        <time>2012-08-08T08:20:04Z</time>
      </trkpt>
      <trkpt lat="43.2138" lon="5.46511">
        <ele>398</ele>
        <time>2012-08-08T08:20:06Z</time>
      </trkpt>
      <trkpt lat="43.21385" lon="5.46511">
        <ele>399</ele>
        <time>2012-08-08T08:20:10Z</time>
      </trkpt>
      <trkpt lat="43.21396" lon="5.4651">
        <ele>398</ele>
        <time>2012-08-08T08:20:24Z</time>
      </trkpt>
      <trkpt lat="43.21398" lon="5.4651">
        <ele>398</ele>
        <time>2012-08-08T08:20:28Z</time>
      </trkpt>
      <trkpt lat="43.21414" lon="5.46509">
        <ele>396</ele>
        <time>2012-08-08T08:20:43Z</time>
      </trkpt>
      <trkpt lat="43.21418" lon="5.46507">
        <ele>397</ele>
        <time>2012-08-08T08:20:48Z</time>
      </trkpt>
      <trkpt lat="43.21421" lon="5.46504">
        <ele>397</ele>
        <time>2012-08-08T08:21:00Z</time>
      </trkpt>
      <trkpt lat="43.21422" lon="5.46499">
        <ele>392</ele>
        <time>2012-08-08T08:21:10Z</time>
      </trkpt>
      <trkpt lat="43.21426" lon="5.46499">
        <ele>391</ele>
        <time>2012-08-08T08:21:17Z</time>
      </trkpt>
      <trkpt lat="43.21429" lon="5.46498">
        <ele>391</ele>
        <time>2012-08-08T08:21:27Z</time>
      </trkpt>
      <trkpt lat="43.21429" lon="5.46496">
        <ele>391</ele>
        <time>2012-08-08T08:21:38Z</time>
      </trkpt>
      <trkpt lat="43.21428" lon="5.4649">
        <ele>390</ele>
        <time>2012-08-08T08:21:50Z</time>
      </trkpt>
      <trkpt lat="43.2143" lon="5.46483">
        <ele>389</ele>
        <time>2012-08-08T08:22:05Z</time>
      </trkpt>
      <trkpt lat="43.21431" lon="5.46476">
        <ele>388</ele>
        <time>2012-08-08T08:22:13Z</time>
      </trkpt>
      <trkpt lat="43.21443" lon="5.4647">
        <ele>387</ele>
        <time>2012-08-08T08:22:25Z</time>
      </trkpt>
      <trkpt lat="43.21451" lon="5.46468">
        <ele>388</ele>
        <time>2012-08-08T08:22:31Z</time>
      </trkpt>
      <trkpt lat="43.21461" lon="5.46463">
        <ele>388</ele>
        <time>2012-08-08T08:22:43Z</time>
      </trkpt>
      <trkpt lat="43.21465" lon="5.46457">
        <ele>388</ele>
        <time>2012-08-08T08:22:54Z</time>
      </trkpt>
      <trkpt lat="43.21466" lon="5.46448">
        <ele>387</ele>
        <time>2012-08-08T08:23:06Z</time>
      </trkpt>
      <trkpt lat="43.2146" lon="5.46437">
        <ele>385</ele>
        <time>2012-08-08T08:23:19Z</time>
      </trkpt>
      <trkpt lat="43.21454" lon="5.46435">
        <ele>383</ele>
        <time>2012-08-08T08:23:29Z</time>
      </trkpt>
      <trkpt lat="43.21452" lon="5.46433">
        <ele>383</ele>
        <time>2012-08-08T08:23:31Z</time>
      </trkpt>
      <trkpt lat="43.21447" lon="5.46424">
        <ele>380</ele>
        <time>2012-08-08T08:23:42Z</time>
      </trkpt>
      <trkpt lat="43.21445" lon="5.46418">
        <ele>379</ele>
        <time>2012-08-08T08:23:47Z</time>
      </trkpt>
      <trkpt lat="43.21446" lon="5.46402">
        <ele>369</ele>
        <time>2012-08-08T08:23:58Z</time>
      </trkpt>
      <trkpt lat="43.21451" lon="5.46381">
        <ele>370</ele>
        <time>2012-08-08T08:24:13Z</time>
      </trkpt>
      <trkpt lat="43.21457" lon="5.46361">
        <ele>369</ele>
        <time>2012-08-08T08:24:29Z</time>
      </trkpt>
      <trkpt lat="43.21467" lon="5.46347">
        <ele>371</ele>
        <time>2012-08-08T08:24:43Z</time>
      </trkpt>
      <trkpt lat="43.21468" lon="5.46333">
        <ele>367</ele>
        <time>2012-08-08T08:24:57Z</time>
      </trkpt>
      <trkpt lat="43.21465" lon="5.46331">
        <ele>366</ele>
        <time>2012-08-08T08:25:02Z</time>
      </trkpt>
      <trkpt lat="43.21456" lon="5.46323">
        <ele>362</ele>
        <time>2012-08-08T08:25:13Z</time>
      </trkpt>
      <trkpt lat="43.21452" lon="5.46317">
        <ele>361</ele>
        <time>2012-08-08T08:25:19Z</time>
      </trkpt>
      <trkpt lat="43.21445" lon="5.46302">
        <ele>359</ele>
        <time>2012-08-08T08:25:32Z</time>
      </trkpt>
      <trkpt lat="43.21444" lon="5.46299">
        <ele>359</ele>
        <time>2012-08-08T08:25:34Z</time>
      </trkpt>
      <trkpt lat="43.21442" lon="5.46292">
        <ele>358</ele>
        <time>2012-08-08T08:25:38Z</time>
      </trkpt>
      <trkpt lat="43.21439" lon="5.46281">
        <ele>356</ele>
        <time>2012-08-08T08:25:45Z</time>
      </trkpt>
      <trkpt lat="43.21439" lon="5.46279">
        <ele>356</ele>
        <time>2012-08-08T08:25:47Z</time>
      </trkpt>
      <trkpt lat="43.21439" lon="5.4626">
        <ele>352</ele>
        <time>2012-08-08T08:25:59Z</time>
      </trkpt>
      <trkpt lat="43.21438" lon="5.46248">
        <ele>342</ele>
        <time>2012-08-08T08:26:05Z</time>
      </trkpt>
      <trkpt lat="43.21441" lon="5.46232">
        <ele>342</ele>
        <time>2012-08-08T08:26:14Z</time>
      </trkpt>
      <trkpt lat="43.21449" lon="5.46198">
        <ele>340</ele>
        <time>2012-08-08T08:26:34Z</time>
      </trkpt>
      <trkpt lat="43.21452" lon="5.46191">
        <ele>339</ele>
        <time>2012-08-08T08:26:39Z</time>
      </trkpt>
      <trkpt lat="43.2146" lon="5.46188">
        <ele>342</ele>
        <time>2012-08-08T08:26:47Z</time>
      </trkpt>
      <trkpt lat="43.21462" lon="5.46185">
        <ele>342</ele>
        <time>2012-08-08T08:26:49Z</time>
      </trkpt>
      <trkpt lat="43.21471" lon="5.46179">
        <ele>345</ele>
        <time>2012-08-08T08:26:58Z</time>
      </trkpt>
      <trkpt lat="43.21475" lon="5.46179">
        <ele>347</ele>
        <time>2012-08-08T08:27:01Z</time>
      </trkpt>
      <trkpt lat="43.21478" lon="5.46178">
        <ele>348</ele>
        <time>2012-08-08T08:27:03Z</time>
      </trkpt>
      <trkpt lat="43.21483" lon="5.46178">
        <ele>349</ele>
        <time>2012-08-08T08:27:07Z</time>
      </trkpt>
      <trkpt lat="43.21495" lon="5.46169">
        <ele>354</ele>
        <time>2012-08-08T08:27:19Z</time>
      </trkpt>
      <trkpt lat="43.21502" lon="5.46157">
        <ele>359</ele>
        <time>2012-08-08T08:27:31Z</time>
      </trkpt>
      <trkpt lat="43.21504" lon="5.46156">
        <ele>359</ele>
        <time>2012-08-08T08:27:33Z</time>
      </trkpt>
      <trkpt lat="43.21509" lon="5.4615">
        <ele>360</ele>
        <time>2012-08-08T08:27:42Z</time>
      </trkpt>
      <trkpt lat="43.21509" lon="5.46144">
        <ele>360</ele>
        <time>2012-08-08T08:27:48Z</time>
      </trkpt>
      <trkpt lat="43.21513" lon="5.46129">
        <ele>359</ele>
        <time>2012-08-08T08:28:00Z</time>
      </trkpt>
      <trkpt lat="43.21514" lon="5.46125">
        <ele>358</ele>
        <time>2012-08-08T08:28:08Z</time>
      </trkpt>
      <trkpt lat="43.21513" lon="5.46122">
        <ele>357</ele>
        <time>2012-08-08T08:28:10Z</time>
      </trkpt>
      <trkpt lat="43.21515" lon="5.46116">
        <ele>356</ele>
        <time>2012-08-08T08:28:20Z</time>
      </trkpt>
      <trkpt lat="43.21516" lon="5.46111">
        <ele>354</ele>
        <time>2012-08-08T08:28:42Z</time>
      </trkpt>
      <trkpt lat="43.21515" lon="5.46109">
        <ele>353</ele>
        <time>2012-08-08T08:28:44Z</time>
      </trkpt>
      <trkpt lat="43.21521" lon="5.46111">
        <ele>356</ele>
        <time>2012-08-08T08:28:49Z</time>
      </trkpt>
      <trkpt lat="43.21524" lon="5.46104">
        <ele>355</ele>
        <time>2012-08-08T08:28:56Z</time>
      </trkpt>
      <trkpt lat="43.21525" lon="5.46092">
        <ele>352</ele>
        <time>2012-08-08T08:29:03Z</time>
      </trkpt>
      <trkpt lat="43.21534" lon="5.46071">
        <ele>330</ele>
        <time>2012-08-08T08:29:18Z</time>
      </trkpt>
      <trkpt lat="43.21535" lon="5.46058">
        <ele>327</ele>
        <time>2012-08-08T08:29:26Z</time>
      </trkpt>
      <trkpt lat="43.21536" lon="5.46052">
        <ele>326</ele>
        <time>2012-08-08T08:29:30Z</time>
      </trkpt>
      <trkpt lat="43.21537" lon="5.46049">
        <ele>325</ele>
        <time>2012-08-08T08:29:32Z</time>
      </trkpt>
      <trkpt lat="43.21545" lon="5.46046">
        <ele>327</ele>
        <time>2012-08-08T08:29:42Z</time>
      </trkpt>
      <trkpt lat="43.21548" lon="5.46048">
        <ele>328</ele>
        <time>2012-08-08T08:29:45Z</time>
      </trkpt>
      <trkpt lat="43.21549" lon="5.46048">
        <ele>329</ele>
        <time>2012-08-08T08:29:47Z</time>
      </trkpt>
      <trkpt lat="43.21555" lon="5.46048">
        <ele>330</ele>
        <time>2012-08-08T08:29:52Z</time>
      </trkpt>
      <trkpt lat="43.21563" lon="5.46053">
        <ele>334</ele>
        <time>2012-08-08T08:29:58Z</time>
      </trkpt>
      <trkpt lat="43.21572" lon="5.46057">
        <ele>339</ele>
        <time>2012-08-08T08:30:05Z</time>
      </trkpt>
      <trkpt lat="43.2158" lon="5.4606">
        <ele>342</ele>
        <time>2012-08-08T08:30:16Z</time>
      </trkpt>
      <trkpt lat="43.21581" lon="5.4606">
        <ele>342</ele>
        <time>2012-08-08T08:30:21Z</time>
      </trkpt>
      <trkpt lat="43.21593" lon="5.46061">
        <ele>359</ele>
        <time>2012-08-08T08:30:33Z</time>
      </trkpt>
      <trkpt lat="43.21594" lon="5.4606">
        <ele>359</ele>
        <time>2012-08-08T08:30:36Z</time>
      </trkpt>
      <trkpt lat="43.21601" lon="5.46058">
        <ele>358</ele>
        <time>2012-08-08T08:30:44Z</time>
      </trkpt>
      <trkpt lat="43.21612" lon="5.46046">
        <ele>356</ele>
        <time>2012-08-08T08:30:57Z</time>
      </trkpt>
      <trkpt lat="43.21622" lon="5.46046">
        <ele>356</ele>
        <time>2012-08-08T08:31:04Z</time>
      </trkpt>
      <trkpt lat="43.21636" lon="5.46051">
        <ele>359</ele>
        <time>2012-08-08T08:31:17Z</time>
      </trkpt>
      <trkpt lat="43.21647" lon="5.46053">
        <ele>360</ele>
        <time>2012-08-08T08:31:26Z</time>
      </trkpt>
      <trkpt lat="43.21648" lon="5.46055">
        <ele>361</ele>
        <time>2012-08-08T08:31:28Z</time>
      </trkpt>
      <trkpt lat="43.21656" lon="5.46059">
        <ele>363</ele>
        <time>2012-08-08T08:31:35Z</time>
      </trkpt>
      <trkpt lat="43.21662" lon="5.46058">
        <ele>363</ele>
        <time>2012-08-08T08:31:40Z</time>
      </trkpt>
      <trkpt lat="43.21671" lon="5.46049">
        <ele>379</ele>
        <time>2012-08-08T08:31:51Z</time>
      </trkpt>
      <trkpt lat="43.21679" lon="5.46044">
        <ele>379</ele>
        <time>2012-08-08T08:31:57Z</time>
      </trkpt>
      <trkpt lat="43.21686" lon="5.4604">
        <ele>380</ele>
        <time>2012-08-08T08:32:04Z</time>
      </trkpt>
      <trkpt lat="43.21695" lon="5.46034">
        <ele>381</ele>
        <time>2012-08-08T08:32:13Z</time>
      </trkpt>
      <trkpt lat="43.2169" lon="5.46022">
        <ele>378</ele>
        <time>2012-08-08T08:32:22Z</time>
      </trkpt>
      <trkpt lat="43.2169" lon="5.46012">
        <ele>376</ele>
        <time>2012-08-08T08:32:38Z</time>
      </trkpt>
      <trkpt lat="43.21686" lon="5.45999">
        <ele>364</ele>
        <time>2012-08-08T08:32:51Z</time>
      </trkpt>
      <trkpt lat="43.21686" lon="5.45998">
        <ele>364</ele>
        <time>2012-08-08T08:32:52Z</time>
      </trkpt>
      <trkpt lat="43.21684" lon="5.45976">
        <ele>365</ele>
        <time>2012-08-08T08:33:07Z</time>
      </trkpt>
      <trkpt lat="43.21684" lon="5.45956">
        <ele>364</ele>
        <time>2012-08-08T08:33:21Z</time>
      </trkpt>
      <trkpt lat="43.2169" lon="5.45933">
        <ele>361</ele>
        <time>2012-08-08T08:33:34Z</time>
      </trkpt>
      <trkpt lat="43.21693" lon="5.4591">
        <ele>348</ele>
        <time>2012-08-08T08:33:48Z</time>
      </trkpt>
      <trkpt lat="43.21694" lon="5.45901">
        <ele>348</ele>
        <time>2012-08-08T08:33:53Z</time>
      </trkpt>
      <trkpt lat="43.21709" lon="5.45885">
        <ele>351</ele>
        <time>2012-08-08T08:34:09Z</time>
      </trkpt>
      <trkpt lat="43.21713" lon="5.45885">
        <ele>352</ele>
        <time>2012-08-08T08:34:12Z</time>
      </trkpt>
      <trkpt lat="43.2173" lon="5.45883">
        <ele>356</ele>
        <time>2012-08-08T08:34:27Z</time>
      </trkpt>
      <trkpt lat="43.21731" lon="5.45883">
        <ele>356</ele>
        <time>2012-08-08T08:34:28Z</time>
      </trkpt>
      <trkpt lat="43.21738" lon="5.45883">
        <ele>357</ele>
        <time>2012-08-08T08:34:35Z</time>
      </trkpt>
      <trkpt lat="43.21744" lon="5.45878">
        <ele>357</ele>
        <time>2012-08-08T08:34:41Z</time>
      </trkpt>
      <trkpt lat="43.21748" lon="5.45876">
        <ele>357</ele>
        <time>2012-08-08T08:34:52Z</time>
      </trkpt>
      <trkpt lat="43.21751" lon="5.4588">
        <ele>382</ele>
        <time>2012-08-08T08:35:25Z</time>
      </trkpt>
      <trkpt lat="43.21753" lon="5.45881">
        <ele>382</ele>
        <time>2012-08-08T08:35:39Z</time>
      </trkpt>
      <trkpt lat="43.21755" lon="5.4587">
        <ele>380</ele>
        <time>2012-08-08T08:35:47Z</time>
      </trkpt>
      <trkpt lat="43.2177" lon="5.45872">
        <ele>383</ele>
        <time>2012-08-08T08:36:00Z</time>
      </trkpt>
      <trkpt lat="43.21774" lon="5.45869">
        <ele>383</ele>
        <time>2012-08-08T08:36:04Z</time>
      </trkpt>
      <trkpt lat="43.2178" lon="5.45869">
        <ele>384</ele>
        <time>2012-08-08T08:36:10Z</time>
      </trkpt>
      <trkpt lat="43.21786" lon="5.45868">
        <ele>386</ele>
        <time>2012-08-08T08:36:15Z</time>
      </trkpt>
      <trkpt lat="43.21792" lon="5.45864">
        <ele>387</ele>
        <time>2012-08-08T08:36:21Z</time>
      </trkpt>
      <trkpt lat="43.21795" lon="5.4586">
        <ele>387</ele>
        <time>2012-08-08T08:36:33Z</time>
      </trkpt>
      <trkpt lat="43.21791" lon="5.45868">
        <ele>387</ele>
        <time>2012-08-08T08:36:44Z</time>
      </trkpt>
      <trkpt lat="43.21786" lon="5.45866">
        <ele>385</ele>
        <time>2012-08-08T08:36:56Z</time>
      </trkpt>
      <trkpt lat="43.21782" lon="5.45865">
        <ele>384</ele>
        <time>2012-08-08T08:37:10Z</time>
      </trkpt>
      <trkpt lat="43.2178" lon="5.45861">
        <ele>383</ele>
        <time>2012-08-08T08:37:22Z</time>
      </trkpt>
      <trkpt lat="43.21773" lon="5.4586">
        <ele>381</ele>
        <time>2012-08-08T08:37:34Z</time>
      </trkpt>
      <trkpt lat="43.21769" lon="5.45857">
        <ele>380</ele>
        <time>2012-08-08T08:37:44Z</time>
      </trkpt>
      <trkpt lat="43.21771" lon="5.45855">
        <ele>380</ele>
        <time>2012-08-08T08:37:58Z</time>
      </trkpt>
      <trkpt lat="43.21769" lon="5.45855">
        <ele>379</ele>
        <time>2012-08-08T08:38:09Z</time>
      </trkpt>
      <trkpt lat="43.21764" lon="5.45851">
        <ele>376</ele>
        <time>2012-08-08T08:38:20Z</time>
      </trkpt>
      <trkpt lat="43.21762" lon="5.45846">
        <ele>374</ele>
        <time>2012-08-08T08:38:32Z</time>
      </trkpt>
      <trkpt lat="43.21762" lon="5.45847">
        <ele>374</ele>
        <time>2012-08-08T08:38:46Z</time>
      </trkpt>
      <trkpt lat="43.21763" lon="5.45847">
        <ele>374</ele>
        <time>2012-08-08T08:39:00Z</time>
      </trkpt>
      <trkpt lat="43.2176" lon="5.45846">
        <ele>373</ele>
        <time>2012-08-08T08:39:13Z</time>
      </trkpt>
      <trkpt lat="43.21753" lon="5.45837">
        <ele>364</ele>
        <time>2012-08-08T08:39:29Z</time>
      </trkpt>
      <trkpt lat="43.21747" lon="5.45841">
        <ele>356</ele>
        <time>2012-08-08T08:39:44Z</time>
      </trkpt>
      <trkpt lat="43.21748" lon="5.45841">
        <ele>356</ele>
        <time>2012-08-08T08:39:50Z</time>
      </trkpt>
      <trkpt lat="43.21747" lon="5.4584">
        <ele>357</ele>
        <time>2012-08-08T08:40:01Z</time>
      </trkpt>
      <trkpt lat="43.21743" lon="5.45842">
        <ele>355</ele>
        <time>2012-08-08T08:40:21Z</time>
      </trkpt>
      <trkpt lat="43.21743" lon="5.45839">
        <ele>356</ele>
        <time>2012-08-08T08:40:33Z</time>
      </trkpt>
      <trkpt lat="43.21751" lon="5.45843">
        <ele>368</ele>
        <time>2012-08-08T08:40:52Z</time>
      </trkpt>
      <trkpt lat="43.21755" lon="5.45842">
        <ele>369</ele>
        <time>2012-08-08T08:41:19Z</time>
      </trkpt>
      <trkpt lat="43.21749" lon="5.45838">
        <ele>357</ele>
        <time>2012-08-08T08:41:43Z</time>
      </trkpt>
      <trkpt lat="43.2176" lon="5.45843">
        <ele>372</ele>
        <time>2012-08-08T08:41:54Z</time>
      </trkpt>
      <trkpt lat="43.21764" lon="5.45849">
        <ele>376</ele>
        <time>2012-08-08T08:42:05Z</time>
      </trkpt>
      <trkpt lat="43.21766" lon="5.45849">
        <ele>376</ele>
        <time>2012-08-08T08:42:15Z</time>
      </trkpt>
      <trkpt lat="43.2177" lon="5.45851">
        <ele>378</ele>
        <time>2012-08-08T08:42:26Z</time>
      </trkpt>
      <trkpt lat="43.21771" lon="5.45853">
        <ele>379</ele>
        <time>2012-08-08T08:42:37Z</time>
      </trkpt>
      <trkpt lat="43.2178" lon="5.45853">
        <ele>382</ele>
        <time>2012-08-08T08:42:48Z</time>
      </trkpt>
      <trkpt lat="43.21781" lon="5.45854">
        <ele>382</ele>
        <time>2012-08-08T08:42:51Z</time>
      </trkpt>
      <trkpt lat="43.21788" lon="5.45861">
        <ele>385</ele>
        <time>2012-08-08T08:43:03Z</time>
      </trkpt>
      <trkpt lat="43.21791" lon="5.45866">
        <ele>386</ele>
        <time>2012-08-08T08:43:16Z</time>
      </trkpt>
      <trkpt lat="43.21793" lon="5.45872">
        <ele>387</ele>
        <time>2012-08-08T08:43:45Z</time>
      </trkpt>
      <trkpt lat="43.21787" lon="5.45867">
        <ele>386</ele>
        <time>2012-08-08T08:43:57Z</time>
      </trkpt>
      <trkpt lat="43.21785" lon="5.45861">
        <ele>385</ele>
        <time>2012-08-08T08:44:32Z</time>
      </trkpt>
      <trkpt lat="43.2179" lon="5.45866">
        <ele>386</ele>
        <time>2012-08-08T08:44:46Z</time>
      </trkpt>
      <trkpt lat="43.21792" lon="5.45865">
        <ele>386</ele>
        <time>2012-08-08T08:44:51Z</time>
      </trkpt>
      <trkpt lat="43.21794" lon="5.45858">
        <ele>387</ele>
        <time>2012-08-08T08:45:04Z</time>
      </trkpt>
      <trkpt lat="43.21792" lon="5.45853">
        <ele>386</ele>
        <time>2012-08-08T08:45:17Z</time>
      </trkpt>
      <trkpt lat="43.21792" lon="5.45844">
        <ele>385</ele>
        <time>2012-08-08T08:45:25Z</time>
      </trkpt>
      <trkpt lat="43.21789" lon="5.45827">
        <ele>377</ele>
        <time>2012-08-08T08:45:39Z</time>
      </trkpt>
      <trkpt lat="43.2179" lon="5.45823">
        <ele>378</ele>
        <time>2012-08-08T08:45:42Z</time>
      </trkpt>
      <trkpt lat="43.21791" lon="5.45816">
        <ele>378</ele>
        <time>2012-08-08T08:45:47Z</time>
      </trkpt>
      <trkpt lat="43.21792" lon="5.45811">
        <ele>378</ele>
        <time>2012-08-08T08:45:50Z</time>
      </trkpt>
      <trkpt lat="43.21797" lon="5.45807">
        <ele>380</ele>
        <time>2012-08-08T08:45:55Z</time>
      </trkpt>
      <trkpt lat="43.21807" lon="5.45806">
        <ele>382</ele>
        <time>2012-08-08T08:46:05Z</time>
      </trkpt>
      <trkpt lat="43.21813" lon="5.45803">
        <ele>384</ele>
        <time>2012-08-08T08:46:18Z</time>
      </trkpt>
      <trkpt lat="43.21813" lon="5.45803">
        <ele>383</ele>
        <time>2012-08-08T08:46:32Z</time>
      </trkpt>
      <trkpt lat="43.21814" lon="5.45799">
        <ele>383</ele>
        <time>2012-08-08T08:46:45Z</time>
      </trkpt>
      <trkpt lat="43.21814" lon="5.45794">
        <ele>383</ele>
        <time>2012-08-08T08:46:58Z</time>
      </trkpt>
      <trkpt lat="43.21812" lon="5.45792">
        <ele>383</ele>
        <time>2012-08-08T08:47:16Z</time>
      </trkpt>
      <trkpt lat="43.21811" lon="5.45792">
        <ele>383</ele>
        <time>2012-08-08T08:47:17Z</time>
      </trkpt>
      <trkpt lat="43.21807" lon="5.45792">
        <ele>382</ele>
        <time>2012-08-08T08:47:29Z</time>
      </trkpt>
      <trkpt lat="43.21806" lon="5.4579">
        <ele>381</ele>
        <time>2012-08-08T08:47:41Z</time>
      </trkpt>
      <trkpt lat="43.21806" lon="5.45787">
        <ele>381</ele>
        <time>2012-08-08T08:47:53Z</time>
      </trkpt>
      <trkpt lat="43.21803" lon="5.45785">
        <ele>381</ele>
        <time>2012-08-08T08:48:05Z</time>
      </trkpt>
      <trkpt lat="43.21804" lon="5.45779">
        <ele>381</ele>
        <time>2012-08-08T08:48:17Z</time>
      </trkpt>
      <trkpt lat="43.21801" lon="5.4578">
        <ele>380</ele>
        <time>2012-08-08T08:48:30Z</time>
      </trkpt>
      <trkpt lat="43.21796" lon="5.45782">
        <ele>379</ele>
        <time>2012-08-08T08:48:44Z</time>
      </trkpt>
      <trkpt lat="43.21793" lon="5.45779">
        <ele>378</ele>
        <time>2012-08-08T08:48:57Z</time>
      </trkpt>
      <trkpt lat="43.2179" lon="5.45773">
        <ele>377</ele>
        <time>2012-08-08T08:49:10Z</time>
      </trkpt>
      <trkpt lat="43.21786" lon="5.45767">
        <ele>376</ele>
        <time>2012-08-08T08:49:21Z</time>
      </trkpt>
      <trkpt lat="43.21785" lon="5.45768">
        <ele>375</ele>
        <time>2012-08-08T08:49:33Z</time>
      </trkpt>
      <trkpt lat="43.21782" lon="5.45769">
        <ele>374</ele>
        <time>2012-08-08T08:49:46Z</time>
      </trkpt>
      <trkpt lat="43.21779" lon="5.45767">
        <ele>373</ele>
        <time>2012-08-08T08:50:00Z</time>
      </trkpt>
      <trkpt lat="43.21774" lon="5.45767">
        <ele>371</ele>
        <time>2012-08-08T08:50:11Z</time>
      </trkpt>
      <trkpt lat="43.21771" lon="5.45766">
        <ele>369</ele>
        <time>2012-08-08T08:50:20Z</time>
      </trkpt>
      <trkpt lat="43.2177" lon="5.45764">
        <ele>369</ele>
        <time>2012-08-08T08:50:29Z</time>
      </trkpt>
      <trkpt lat="43.21768" lon="5.45761">
        <ele>367</ele>
        <time>2012-08-08T08:50:42Z</time>
      </trkpt>
      <trkpt lat="43.21764" lon="5.45765">
        <ele>367</ele>
        <time>2012-08-08T08:50:53Z</time>
      </trkpt>
      <trkpt lat="43.21763" lon="5.45761">
        <ele>365</ele>
        <time>2012-08-08T08:51:05Z</time>
      </trkpt>
      <trkpt lat="43.21763" lon="5.4576">
        <ele>365</ele>
        <time>2012-08-08T08:51:17Z</time>
      </trkpt>
      <trkpt lat="43.21761" lon="5.45759">
        <ele>363</ele>
        <time>2012-08-08T08:51:31Z</time>
      </trkpt>
      <trkpt lat="43.21758" lon="5.45758">
        <ele>361</ele>
        <time>2012-08-08T08:51:44Z</time>
      </trkpt>
      <trkpt lat="43.21754" lon="5.45763">
        <ele>363</ele>
        <time>2012-08-08T08:51:57Z</time>
      </trkpt>
      <trkpt lat="43.21752" lon="5.45762">
        <ele>361</ele>
        <time>2012-08-08T08:52:11Z</time>
      </trkpt>
      <trkpt lat="43.2175" lon="5.45762">
        <ele>345</ele>
        <time>2012-08-08T08:52:23Z</time>
      </trkpt>
      <trkpt lat="43.21745" lon="5.45761">
        <ele>345</ele>
        <time>2012-08-08T08:52:37Z</time>
      </trkpt>
      <trkpt lat="43.2174" lon="5.45763">
        <ele>343</ele>
        <time>2012-08-08T08:52:51Z</time>
      </trkpt>
      <trkpt lat="43.21738" lon="5.45764">
        <ele>342</ele>
        <time>2012-08-08T08:53:06Z</time>
      </trkpt>
      <trkpt lat="43.21734" lon="5.45763">
        <ele>341</ele>
        <time>2012-08-08T08:53:19Z</time>
      </trkpt>
      <trkpt lat="43.2173" lon="5.45768">
        <ele>339</ele>
        <time>2012-08-08T08:53:32Z</time>
      </trkpt>
      <trkpt lat="43.21728" lon="5.45764">
        <ele>338</ele>
        <time>2012-08-08T08:53:41Z</time>
      </trkpt>
      <trkpt lat="43.21725" lon="5.45765">
        <ele>337</ele>
        <time>2012-08-08T08:53:53Z</time>
      </trkpt>
      <trkpt lat="43.21721" lon="5.45764">
        <ele>336</ele>
        <time>2012-08-08T08:54:05Z</time>
      </trkpt>
      <trkpt lat="43.21718" lon="5.45773">
        <ele>335</ele>
        <time>2012-08-08T08:54:17Z</time>
      </trkpt>
      <trkpt lat="43.21716" lon="5.45774">
        <ele>334</ele>
        <time>2012-08-08T08:54:29Z</time>
      </trkpt>
      <trkpt lat="43.21714" lon="5.45773">
        <ele>333</ele>
        <time>2012-08-08T08:54:41Z</time>
      </trkpt>
      <trkpt lat="43.21713" lon="5.45778">
        <ele>333</ele>
        <time>2012-08-08T08:54:53Z</time>
      </trkpt>
      <trkpt lat="43.21711" lon="5.45773">
        <ele>333</ele>
        <time>2012-08-08T08:55:05Z</time>
      </trkpt>
      <trkpt lat="43.21711" lon="5.45767">
        <ele>332</ele>
        <time>2012-08-08T08:55:18Z</time>
      </trkpt>
      <trkpt lat="43.2171" lon="5.45763">
        <ele>332</ele>
        <time>2012-08-08T08:55:29Z</time>
      </trkpt>
      <trkpt lat="43.21708" lon="5.45755">
        <ele>331</ele>
        <time>2012-08-08T08:55:42Z</time>
      </trkpt>
      <trkpt lat="43.21706" lon="5.45748">
        <ele>333</ele>
        <time>2012-08-08T08:55:54Z</time>
      </trkpt>
      <trkpt lat="43.21702" lon="5.45742">
        <ele>332</ele>
        <time>2012-08-08T08:56:05Z</time>
      </trkpt>
      <trkpt lat="43.2169" lon="5.45727">
        <ele>329</ele>
        <time>2012-08-08T08:56:20Z</time>
      </trkpt>
      <trkpt lat="43.21689" lon="5.45724">
        <ele>329</ele>
        <time>2012-08-08T08:56:22Z</time>
      </trkpt>
      <trkpt lat="43.21676" lon="5.45709">
        <ele>329</ele>
        <time>2012-08-08T08:56:40Z</time>
      </trkpt>
      <trkpt lat="43.21663" lon="5.45686">
        <ele>302</ele>
        <time>2012-08-08T08:56:59Z</time>
      </trkpt>
      <trkpt lat="43.21657" lon="5.45668">
        <ele>307</ele>
        <time>2012-08-08T08:57:13Z</time>
      </trkpt>
      <trkpt lat="43.21656" lon="5.45667">
        <ele>307</ele>
        <time>2012-08-08T08:57:14Z</time>
      </trkpt>
      <trkpt lat="43.21655" lon="5.45666">
        <ele>308</ele>
        <time>2012-08-08T08:57:15Z</time>
      </trkpt>
      <trkpt lat="43.21651" lon="5.45645">
        <ele>302</ele>
        <time>2012-08-08T08:57:29Z</time>
      </trkpt>
      <trkpt lat="43.21647" lon="5.45618">
        <ele>300</ele>
        <time>2012-08-08T08:57:45Z</time>
      </trkpt>
      <trkpt lat="43.2164" lon="5.45595">
        <ele>300</ele>
        <time>2012-08-08T08:58:01Z</time>
      </trkpt>
      <trkpt lat="43.21637" lon="5.45587">
        <ele>300</ele>
        <time>2012-08-08T08:58:08Z</time>
      </trkpt>
      <trkpt lat="43.21636" lon="5.45582">
        <ele>297</ele>
        <time>2012-08-08T08:58:11Z</time>
      </trkpt>
      <trkpt lat="43.21636" lon="5.45579">
        <ele>297</ele>
        <time>2012-08-08T08:58:13Z</time>
      </trkpt>
      <trkpt lat="43.21635" lon="5.45577">
        <ele>297</ele>
        <time>2012-08-08T08:58:15Z</time>
      </trkpt>
      <trkpt lat="43.21629" lon="5.45557">
        <ele>293</ele>
        <time>2012-08-08T08:58:31Z</time>
      </trkpt>
      <trkpt lat="43.21621" lon="5.45528">
        <ele>290</ele>
        <time>2012-08-08T08:58:49Z</time>
      </trkpt>
      <trkpt lat="43.21619" lon="5.45522">
        <ele>289</ele>
        <time>2012-08-08T08:58:55Z</time>
      </trkpt>
      <trkpt lat="43.21615" lon="5.45517">
        <ele>287</ele>
        <time>2012-08-08T08:59:01Z</time>
      </trkpt>
      <trkpt lat="43.21612" lon="5.45513">
        <ele>286</ele>
        <time>2012-08-08T08:59:05Z</time>
      </trkpt>
      <trkpt lat="43.21612" lon="5.4551">
        <ele>285</ele>
        <time>2012-08-08T08:59:06Z</time>
      </trkpt>
      <trkpt lat="43.21609" lon="5.45506">
        <ele>284</ele>
        <time>2012-08-08T08:59:10Z</time>
      </trkpt>
      <trkpt lat="43.21607" lon="5.45506">
        <ele>283</ele>
        <time>2012-08-08T08:59:13Z</time>
      </trkpt>
      <trkpt lat="43.21605" lon="5.45504">
        <ele>283</ele>
        <time>2012-08-08T08:59:17Z</time>
      </trkpt>
      <trkpt lat="43.21597" lon="5.45488">
        <ele>276</ele>
        <time>2012-08-08T08:59:32Z</time>
      </trkpt>
      <trkpt lat="43.21594" lon="5.45486">
        <ele>275</ele>
        <time>2012-08-08T08:59:35Z</time>
      </trkpt>
      <trkpt lat="43.21584" lon="5.45474">
        <ele>275</ele>
        <time>2012-08-08T08:59:48Z</time>
      </trkpt>
      <trkpt lat="43.21583" lon="5.45454">
        <ele>254</ele>
        <time>2012-08-08T09:00:00Z</time>
      </trkpt>
      <trkpt lat="43.21584" lon="5.4545">
        <ele>275</ele>
        <time>2012-08-08T09:00:04Z</time>
      </trkpt>
      <trkpt lat="43.21585" lon="5.45426">
        <ele>269</ele>
        <time>2012-08-08T09:00:18Z</time>
      </trkpt>
      <trkpt lat="43.21585" lon="5.45392">
        <ele>264</ele>
        <time>2012-08-08T09:00:34Z</time>
      </trkpt>
      <trkpt lat="43.21584" lon="5.45373">
        <ele>263</ele>
        <time>2012-08-08T09:00:42Z</time>
      </trkpt>
      <trkpt lat="43.21584" lon="5.45357">
        <ele>260</ele>
        <time>2012-08-08T09:00:53Z</time>
      </trkpt>
      <trkpt lat="43.21584" lon="5.45356">
        <ele>260</ele>
        <time>2012-08-08T09:00:54Z</time>
      </trkpt>
      <trkpt lat="43.21586" lon="5.45331">
        <ele>251</ele>
        <time>2012-08-08T09:01:09Z</time>
      </trkpt>
      <trkpt lat="43.2159" lon="5.45322">
        <ele>248</ele>
        <time>2012-08-08T09:01:21Z</time>
      </trkpt>
      <trkpt lat="43.21597" lon="5.45315">
        <ele>247</ele>
        <time>2012-08-08T09:01:34Z</time>
      </trkpt>
      <trkpt lat="43.216" lon="5.45309">
        <ele>245</ele>
        <time>2012-08-08T09:01:46Z</time>
      </trkpt>
      <trkpt lat="43.216" lon="5.45304">
        <ele>245</ele>
        <time>2012-08-08T09:01:54Z</time>
      </trkpt>
      <trkpt lat="43.21592" lon="5.45304">
        <ele>245</ele>
        <time>2012-08-08T09:02:06Z</time>
      </trkpt>
      <trkpt lat="43.21584" lon="5.45304">
        <ele>245</ele>
        <time>2012-08-08T09:02:17Z</time>
      </trkpt>
      <trkpt lat="43.21575" lon="5.45308">
        <ele>238</ele>
        <time>2012-08-08T09:02:30Z</time>
      </trkpt>
      <trkpt lat="43.21567" lon="5.4531">
        <ele>238</ele>
        <time>2012-08-08T09:02:43Z</time>
      </trkpt>
      <trkpt lat="43.21561" lon="5.45314">
        <ele>237</ele>
        <time>2012-08-08T09:02:53Z</time>
      </trkpt>
      <trkpt lat="43.21554" lon="5.4531">
        <ele>235</ele>
        <time>2012-08-08T09:03:03Z</time>
      </trkpt>
      <trkpt lat="43.21547" lon="5.45296">
        <ele>233</ele>
        <time>2012-08-08T09:03:17Z</time>
      </trkpt>
      <trkpt lat="43.21547" lon="5.45288">
        <ele>232</ele>
        <time>2012-08-08T09:03:23Z</time>
      </trkpt>
      <trkpt lat="43.21559" lon="5.45272">
        <ele>232</ele>
        <time>2012-08-08T09:03:38Z</time>
      </trkpt>
      <trkpt lat="43.21565" lon="5.45263">
        <ele>231</ele>
        <time>2012-08-08T09:03:50Z</time>
      </trkpt>
      <trkpt lat="43.21572" lon="5.4525">
        <ele>231</ele>
        <time>2012-08-08T09:04:03Z</time>
      </trkpt>
      <trkpt lat="43.21573" lon="5.45248">
        <ele>225</ele>
        <time>2012-08-08T09:04:06Z</time>
      </trkpt>
      <trkpt lat="43.21575" lon="5.45242">
        <ele>224</ele>
        <time>2012-08-08T09:04:11Z</time>
      </trkpt>
      <trkpt lat="43.21577" lon="5.45239">
        <ele>224</ele>
        <time>2012-08-08T09:04:14Z</time>
      </trkpt>
      <trkpt lat="43.21581" lon="5.4523">
        <ele>221</ele>
        <time>2012-08-08T09:04:23Z</time>
      </trkpt>
      <trkpt lat="43.21587" lon="5.4522">
        <ele>219</ele>
        <time>2012-08-08T09:04:32Z</time>
      </trkpt>
      <trkpt lat="43.21589" lon="5.45216">
        <ele>217</ele>
        <time>2012-08-08T09:04:35Z</time>
      </trkpt>
      <trkpt lat="43.21593" lon="5.45208">
        <ele>216</ele>
        <time>2012-08-08T09:04:41Z</time>
      </trkpt>
      <trkpt lat="43.21598" lon="5.45199">
        <ele>213</ele>
        <time>2012-08-08T09:04:53Z</time>
      </trkpt>
      <trkpt lat="43.21618" lon="5.45212">
        <ele>216</ele>
        <time>2012-08-08T09:05:09Z</time>
      </trkpt>
      <trkpt lat="43.21644" lon="5.4523">
        <ele>218</ele>
        <time>2012-08-08T09:05:28Z</time>
      </trkpt>
      <trkpt lat="43.21671" lon="5.45251">
        <ele>228</ele>
        <time>2012-08-08T09:05:50Z</time>
      </trkpt>
      <trkpt lat="43.21695" lon="5.45267">
        <ele>242</ele>
        <time>2012-08-08T09:06:09Z</time>
      </trkpt>
      <trkpt lat="43.21717" lon="5.45273">
        <ele>245</ele>
        <time>2012-08-08T09:06:25Z</time>
      </trkpt>
      <trkpt lat="43.21725" lon="5.45268">
        <ele>245</ele>
        <time>2012-08-08T09:06:32Z</time>
      </trkpt>
      <trkpt lat="43.21721" lon="5.45269">
        <ele>245</ele>
        <time>2012-08-08T09:06:37Z</time>
      </trkpt>
      <trkpt lat="43.21719" lon="5.45242">
        <ele>231</ele>
        <time>2012-08-08T09:06:54Z</time>
      </trkpt>
      <trkpt lat="43.21721" lon="5.45217">
        <ele>229</ele>
        <time>2012-08-08T09:07:11Z</time>
      </trkpt>
      <trkpt lat="43.21716" lon="5.45178">
        <ele>227</ele>
        <time>2012-08-08T09:07:28Z</time>
      </trkpt>
      <trkpt lat="43.21714" lon="5.4513">
        <ele>222</ele>
        <time>2012-08-08T09:07:49Z</time>
      </trkpt>
      <trkpt lat="43.21707" lon="5.4509">
        <ele>220</ele>
        <time>2012-08-08T09:08:07Z</time>
      </trkpt>
      <trkpt lat="43.21692" lon="5.45056">
        <ele>215</ele>
        <time>2012-08-08T09:08:27Z</time>
      </trkpt>
      <trkpt lat="43.21677" lon="5.45024">
        <ele>213</ele>
        <time>2012-08-08T09:08:46Z</time>
      </trkpt>
      <trkpt lat="43.21682" lon="5.44988">
        <ele>208</ele>
        <time>2012-08-08T09:09:03Z</time>
      </trkpt>
      <trkpt lat="43.21696" lon="5.44956">
        <ele>208</ele>
        <time>2012-08-08T09:09:20Z</time>
      </trkpt>
      <trkpt lat="43.21718" lon="5.44936">
        <ele>209</ele>
        <time>2012-08-08T09:09:37Z</time>
      </trkpt>
      <trkpt lat="43.21733" lon="5.44926">
        <ele>210</ele>
        <time>2012-08-08T09:09:51Z</time>
      </trkpt>
      <trkpt lat="43.21741" lon="5.44916">
        <ele>205</ele>
        <time>2012-08-08T09:10:05Z</time>
      </trkpt>
      <trkpt lat="43.21767" lon="5.44908">
        <ele>209</ele>
        <time>2012-08-08T09:10:21Z</time>
      </trkpt>
      <trkpt lat="43.21793" lon="5.44909">
        <ele>211</ele>
        <time>2012-08-08T09:10:40Z</time>
      </trkpt>
      <trkpt lat="43.21805" lon="5.44893">
        <ele>211</ele>
        <time>2012-08-08T09:10:55Z</time>
      </trkpt>
      <trkpt lat="43.2181" lon="5.44866">
        <ele>209</ele>
        <time>2012-08-08T09:11:08Z</time>
      </trkpt>
      <trkpt lat="43.21832" lon="5.44853">
        <ele>208</ele>
        <time>2012-08-08T09:11:23Z</time>
      </trkpt>
      <trkpt lat="43.21858" lon="5.44853">
        <ele>222</ele>
        <time>2012-08-08T09:11:41Z</time>
      </trkpt>
      <trkpt lat="43.21859" lon="5.44853">
        <ele>222</ele>
        <time>2012-08-08T09:11:42Z</time>
      </trkpt>
      <trkpt lat="43.21875" lon="5.44832">
        <ele>217</ele>
        <time>2012-08-08T09:11:59Z</time>
      </trkpt>
      <trkpt lat="43.21875" lon="5.448">
        <ele>217</ele>
        <time>2012-08-08T09:12:16Z</time>
      </trkpt>
      <trkpt lat="43.21881" lon="5.44767">
        <ele>217</ele>
        <time>2012-08-08T09:12:33Z</time>
      </trkpt>
      <trkpt lat="43.21886" lon="5.44741">
        <ele>216</ele>
        <time>2012-08-08T09:12:48Z</time>
      </trkpt>
      <trkpt lat="43.21878" lon="5.44712">
        <ele>216</ele>
        <time>2012-08-08T09:13:04Z</time>
      </trkpt>
      <trkpt lat="43.21877" lon="5.44681">
        <ele>216</ele>
        <time>2012-08-08T09:13:19Z</time>
      </trkpt>
      <trkpt lat="43.21881" lon="5.44656">
        <ele>215</ele>
        <time>2012-08-08T09:13:32Z</time>
      </trkpt>
      <trkpt lat="43.2189" lon="5.44626">
        <ele>215</ele>
        <time>2012-08-08T09:13:47Z</time>
      </trkpt>
      <trkpt lat="43.21905" lon="5.44601">
        <ele>213</ele>
        <time>2012-08-08T09:14:03Z</time>
      </trkpt>
      <trkpt lat="43.2192" lon="5.44573">
        <ele>211</ele>
        <time>2012-08-08T09:14:20Z</time>
      </trkpt>
      <trkpt lat="43.21927" lon="5.4455">
        <ele>212</ele>
        <time>2012-08-08T09:14:35Z</time>
      </trkpt>
      <trkpt lat="43.21927" lon="5.44549">
        <ele>211</ele>
        <time>2012-08-08T09:14:36Z</time>
      </trkpt>
      <trkpt lat="43.21927" lon="5.44547">
        <ele>211</ele>
        <time>2012-08-08T09:14:37Z</time>
      </trkpt>
      <trkpt lat="43.21926" lon="5.44546">
        <ele>211</ele>
        <time>2012-08-08T09:14:38Z</time>
      </trkpt>
      <trkpt lat="43.21926" lon="5.44545">
        <ele>211</ele>
        <time>2012-08-08T09:14:39Z</time>
      </trkpt>
      <trkpt lat="43.21919" lon="5.44517">
        <ele>209</ele>
        <time>2012-08-08T09:14:54Z</time>
      </trkpt>
      <trkpt lat="43.21923" lon="5.4449">
        <ele>206</ele>
        <time>2012-08-08T09:15:09Z</time>
      </trkpt>
      <trkpt lat="43.21925" lon="5.44481">
        <ele>207</ele>
        <time>2012-08-08T09:15:14Z</time>
      </trkpt>
      <trkpt lat="43.21929" lon="5.44466">
        <ele>206</ele>
        <time>2012-08-08T09:15:25Z</time>
      </trkpt>
      <trkpt lat="43.2193" lon="5.44465">
        <ele>206</ele>
        <time>2012-08-08T09:15:26Z</time>
      </trkpt>
      <trkpt lat="43.21942" lon="5.44445">
        <ele>206</ele>
        <time>2012-08-08T09:15:41Z</time>
      </trkpt>
      <trkpt lat="43.21957" lon="5.44425">
        <ele>206</ele>
        <time>2012-08-08T09:15:56Z</time>
      </trkpt>
      <trkpt lat="43.21968" lon="5.44399">
        <ele>201</ele>
        <time>2012-08-08T09:16:12Z</time>
      </trkpt>
      <trkpt lat="43.21974" lon="5.44356">
        <ele>199</ele>
        <time>2012-08-08T09:16:26Z</time>
      </trkpt>
      <trkpt lat="43.21985" lon="5.44324">
        <ele>194</ele>
        <time>2012-08-08T09:16:41Z</time>
      </trkpt>
      <trkpt lat="43.22003" lon="5.44297">
        <ele>196</ele>
        <time>2012-08-08T09:16:55Z</time>
      </trkpt>
      <trkpt lat="43.22014" lon="5.44273">
        <ele>195</ele>
        <time>2012-08-08T09:17:10Z</time>
      </trkpt>
      <trkpt lat="43.22018" lon="5.44268">
        <ele>194</ele>
        <time>2012-08-08T09:17:13Z</time>
      </trkpt>
      <trkpt lat="43.22018" lon="5.44266">
        <ele>194</ele>
        <time>2012-08-08T09:17:14Z</time>
      </trkpt>
      <trkpt lat="43.22019" lon="5.44264">
        <ele>194</ele>
        <time>2012-08-08T09:17:15Z</time>
      </trkpt>
      <trkpt lat="43.22031" lon="5.44232">
        <ele>190</ele>
        <time>2012-08-08T09:17:31Z</time>
      </trkpt>
      <trkpt lat="43.2204" lon="5.44206">
        <ele>189</ele>
        <time>2012-08-08T09:17:45Z</time>
      </trkpt>
      <trkpt lat="43.22043" lon="5.44203">
        <ele>189</ele>
        <time>2012-08-08T09:17:47Z</time>
      </trkpt>
      <trkpt lat="43.22044" lon="5.44202">
        <ele>189</ele>
        <time>2012-08-08T09:17:48Z</time>
      </trkpt>
      <trkpt lat="43.22046" lon="5.44198">
        <ele>188</ele>
        <time>2012-08-08T09:17:50Z</time>
      </trkpt>
      <trkpt lat="43.22049" lon="5.44186">
        <ele>188</ele>
        <time>2012-08-08T09:17:55Z</time>
      </trkpt>
      <trkpt lat="43.22049" lon="5.44183">
        <ele>188</ele>
        <time>2012-08-08T09:17:56Z</time>
      </trkpt>
      <trkpt lat="43.22057" lon="5.44154">
        <ele>183</ele>
        <time>2012-08-08T09:18:11Z</time>
      </trkpt>
      <trkpt lat="43.22071" lon="5.44121">
        <ele>182</ele>
        <time>2012-08-08T09:18:28Z</time>
      </trkpt>
      <trkpt lat="43.22089" lon="5.44098">
        <ele>184</ele>
        <time>2012-08-08T09:18:43Z</time>
      </trkpt>
      <trkpt lat="43.22104" lon="5.44073">
        <ele>182</ele>
        <time>2012-08-08T09:18:58Z</time>
      </trkpt>
      <trkpt lat="43.2212" lon="5.44056">
        <ele>182</ele>
        <time>2012-08-08T09:19:13Z</time>
      </trkpt>
      <trkpt lat="43.22124" lon="5.44052">
        <ele>182</ele>
        <time>2012-08-08T09:19:17Z</time>
      </trkpt>
      <trkpt lat="43.22125" lon="5.44051">
        <ele>182</ele>
        <time>2012-08-08T09:19:18Z</time>
      </trkpt>
      <trkpt lat="43.22132" lon="5.44045">
        <ele>182</ele>
        <time>2012-08-08T09:19:23Z</time>
      </trkpt>
      <trkpt lat="43.22133" lon="5.44044">
        <ele>182</ele>
        <time>2012-08-08T09:19:24Z</time>
      </trkpt>
      <trkpt lat="43.22146" lon="5.44023">
        <ele>182</ele>
        <time>2012-08-08T09:19:40Z</time>
      </trkpt>
      <trkpt lat="43.22163" lon="5.44009">
        <ele>181</ele>
        <time>2012-08-08T09:19:56Z</time>
      </trkpt>
      <trkpt lat="43.22182" lon="5.44">
        <ele>180</ele>
        <time>2012-08-08T09:20:11Z</time>
      </trkpt>
      <trkpt lat="43.22209" lon="5.43992">
        <ele>180</ele>
        <time>2012-08-08T09:20:25Z</time>
      </trkpt>
      <trkpt lat="43.22225" lon="5.43985">
        <ele>180</ele>
        <time>2012-08-08T09:20:41Z</time>
      </trkpt>
      <trkpt lat="43.2224" lon="5.43973">
        <ele>180</ele>
        <time>2012-08-08T09:20:52Z</time>
      </trkpt>
      <trkpt lat="43.22241" lon="5.43972">
        <ele>180</ele>
        <time>2012-08-08T09:20:53Z</time>
      </trkpt>
      <trkpt lat="43.22243" lon="5.43971">
        <ele>180</ele>
        <time>2012-08-08T09:20:54Z</time>
      </trkpt>
      <trkpt lat="43.22245" lon="5.4397">
        <ele>180</ele>
        <time>2012-08-08T09:20:55Z</time>
      </trkpt>
      <trkpt lat="43.22259" lon="5.43965">
        <ele>179</ele>
        <time>2012-08-08T09:21:04Z</time>
      </trkpt>
      <trkpt lat="43.22269" lon="5.43955">
        <ele>179</ele>
        <time>2012-08-08T09:21:15Z</time>
      </trkpt>
      <trkpt lat="43.2227" lon="5.43954">
        <ele>179</ele>
        <time>2012-08-08T09:21:16Z</time>
      </trkpt>
      <trkpt lat="43.22285" lon="5.43942">
        <ele>179</ele>
        <time>2012-08-08T09:21:29Z</time>
      </trkpt>
      <trkpt lat="43.22286" lon="5.4394">
        <ele>179</ele>
        <time>2012-08-08T09:21:30Z</time>
      </trkpt>
      <trkpt lat="43.22287" lon="5.43939">
        <ele>179</ele>
        <time>2012-08-08T09:21:31Z</time>
      </trkpt>
      <trkpt lat="43.22287" lon="5.43937">
        <ele>179</ele>
        <time>2012-08-08T09:21:32Z</time>
      </trkpt>
      <trkpt lat="43.22288" lon="5.43935">
        <ele>179</ele>
        <time>2012-08-08T09:21:33Z</time>
      </trkpt>
      <trkpt lat="43.22289" lon="5.43934">
        <ele>179</ele>
        <time>2012-08-08T09:21:34Z</time>
      </trkpt>
      <trkpt lat="43.2229" lon="5.43932">
        <ele>179</ele>
        <time>2012-08-08T09:21:35Z</time>
      </trkpt>
      <trkpt lat="43.22291" lon="5.43931">
        <ele>179</ele>
        <time>2012-08-08T09:21:36Z</time>
      </trkpt>
      <trkpt lat="43.22292" lon="5.4393">
        <ele>179</ele>
        <time>2012-08-08T09:21:37Z</time>
      </trkpt>
      <trkpt lat="43.22308" lon="5.4391">
        <ele>179</ele>
        <time>2012-08-08T09:21:51Z</time>
      </trkpt>
      <trkpt lat="43.22325" lon="5.4389">
        <ele>179</ele>
        <time>2012-08-08T09:22:04Z</time>
      </trkpt>
      <trkpt lat="43.22326" lon="5.43888">
        <ele>179</ele>
        <time>2012-08-08T09:22:05Z</time>
      </trkpt>
      <trkpt lat="43.2235" lon="5.43867">
        <ele>173</ele>
        <time>2012-08-08T09:22:21Z</time>
      </trkpt>
      <trkpt lat="43.22353" lon="5.43865">
        <ele>173</ele>
        <time>2012-08-08T09:22:23Z</time>
      </trkpt>
      <trkpt lat="43.22377" lon="5.43853">
        <ele>172</ele>
        <time>2012-08-08T09:22:37Z</time>
      </trkpt>
      <trkpt lat="43.22408" lon="5.4384">
        <ele>170</ele>
        <time>2012-08-08T09:22:54Z</time>
      </trkpt>
      <trkpt lat="43.22423" lon="5.4382">
        <ele>170</ele>
        <time>2012-08-08T09:23:11Z</time>
      </trkpt>
      <trkpt lat="43.22437" lon="5.43815">
        <ele>171</ele>
        <time>2012-08-08T09:23:20Z</time>
      </trkpt>
      <trkpt lat="43.22465" lon="5.43812">
        <ele>172</ele>
        <time>2012-08-08T09:23:34Z</time>
      </trkpt>
      <trkpt lat="43.2249" lon="5.4381">
        <ele>172</ele>
        <time>2012-08-08T09:23:49Z</time>
      </trkpt>
      <trkpt lat="43.22515" lon="5.43806">
        <ele>171</ele>
        <time>2012-08-08T09:24:04Z</time>
      </trkpt>
      <trkpt lat="43.2254" lon="5.43804">
        <ele>171</ele>
        <time>2012-08-08T09:24:20Z</time>
      </trkpt>
      <trkpt lat="43.22562" lon="5.43802">
        <ele>171</ele>
        <time>2012-08-08T09:24:35Z</time>
      </trkpt>
      <trkpt lat="43.22587" lon="5.43803">
        <ele>169</ele>
        <time>2012-08-08T09:24:50Z</time>
      </trkpt>
      <trkpt lat="43.22611" lon="5.43796">
        <ele>169</ele>
        <time>2012-08-08T09:25:05Z</time>
      </trkpt>
      <trkpt lat="43.22639" lon="5.4379">
        <ele>168</ele>
        <time>2012-08-08T09:25:19Z</time>
      </trkpt>
      <trkpt lat="43.22674" lon="5.43766">
        <ele>166</ele>
        <time>2012-08-08T09:25:43Z</time>
      </trkpt>
      <trkpt lat="43.22702" lon="5.43743">
        <ele>167</ele>
        <time>2012-08-08T09:26:06Z</time>
      </trkpt>
      <trkpt lat="43.2273" lon="5.43729">
        <ele>166</ele>
        <time>2012-08-08T09:26:26Z</time>
      </trkpt>
      <trkpt lat="43.2275" lon="5.43723">
        <ele>166</ele>
        <time>2012-08-08T09:26:40Z</time>
      </trkpt>
      <trkpt lat="43.2278" lon="5.43716">
        <ele>165</ele>
        <time>2012-08-08T09:26:57Z</time>
      </trkpt>
      <trkpt lat="43.22808" lon="5.43718">
        <ele>164</ele>
        <time>2012-08-08T09:27:15Z</time>
      </trkpt>
      <trkpt lat="43.22832" lon="5.43716">
        <ele>164</ele>
        <time>2012-08-08T09:27:31Z</time>
      </trkpt>
      <trkpt lat="43.22845" lon="5.43714">
        <ele>161</ele>
        <time>2012-08-08T09:27:41Z</time>
      </trkpt>
      <trkpt lat="43.22867" lon="5.43707">
        <ele>160</ele>
        <time>2012-08-08T09:27:56Z</time>
      </trkpt>
      <trkpt lat="43.22886" lon="5.43705">
        <ele>159</ele>
        <time>2012-08-08T09:28:08Z</time>
      </trkpt>
      <trkpt lat="43.22887" lon="5.43705">
        <ele>159</ele>
        <time>2012-08-08T09:28:09Z</time>
      </trkpt>
      <trkpt lat="43.2291" lon="5.43703">
        <ele>159</ele>
        <time>2012-08-08T09:28:24Z</time>
      </trkpt>
      <trkpt lat="43.22933" lon="5.43702">
        <ele>153</ele>
        <time>2012-08-08T09:28:38Z</time>
      </trkpt>
      <trkpt lat="43.22955" lon="5.43698">
        <ele>152</ele>
        <time>2012-08-08T09:28:56Z</time>
      </trkpt>
      <trkpt lat="43.22973" lon="5.43697">
        <ele>151</ele>
        <time>2012-08-08T09:29:08Z</time>
      </trkpt>
      <trkpt lat="43.22994" lon="5.43696">
        <ele>150</ele>
        <time>2012-08-08T09:29:24Z</time>
      </trkpt>
      <trkpt lat="43.23007" lon="5.43702">
        <ele>145</ele>
        <time>2012-08-08T09:29:39Z</time>
      </trkpt>
    </trkseg>
  </trk>
</gpx>